<?xml version="1.0" encoding="UTF-8" standalone="no" ?>
<gpx xmlns="http://www.topografix.com/GPX/1/1" xmlns:xsi="http://www.w3.org/2001/XMLSchema-instance" xsi:schemaLocation="http://www.topografix.com/GPX/1/1 http://www.topografix.com/GPX/1/1/gpx.xsd" version="1.1" creator="VisuGPX - https://www.visugpx.com">
  <metadata>
    <name>Sortie Club0905</name>
  </metadata>
  <trk>
    <name><![CDATA[Sortie Club0905]]></name>
    <trkseg>
      <trkpt lat="50.50368" lon="3.46458">
        <ele>22.277552</ele>
        <time>2021-05-07T15:46:34.120Z</time>
      </trkpt>
      <trkpt lat="50.50371" lon="3.46461">
        <ele>22.277552</ele>
        <time>2021-05-07T15:46:34.783Z</time>
      </trkpt>
      <trkpt lat="50.50523" lon="3.46572">
        <ele>23.107119</ele>
        <time>2021-05-07T15:47:05.302Z</time>
      </trkpt>
      <trkpt lat="50.50681" lon="3.46651">
        <ele>24.57589</ele>
        <time>2021-05-07T15:47:37.553Z</time>
      </trkpt>
      <trkpt lat="50.50708" lon="3.46672">
        <ele>24.776241</ele>
        <time>2021-05-07T15:47:42.887Z</time>
      </trkpt>
      <trkpt lat="50.50735" lon="3.46707">
        <ele>25.010824</ele>
        <time>2021-05-07T15:47:48.793Z</time>
      </trkpt>
      <trkpt lat="50.50778" lon="3.46766">
        <ele>25.311784</ele>
        <time>2021-05-07T15:47:57.845Z</time>
      </trkpt>
      <trkpt lat="50.50821" lon="3.46826">
        <ele>25.180601</ele>
        <time>2021-05-07T15:48:06.454Z</time>
      </trkpt>
      <trkpt lat="50.50831" lon="3.4684">
        <ele>25.150861</ele>
        <time>2021-05-07T15:48:08.257Z</time>
      </trkpt>
      <trkpt lat="50.50837" lon="3.46857">
        <ele>25.122219</ele>
        <time>2021-05-07T15:48:10.049Z</time>
      </trkpt>
      <trkpt lat="50.50838" lon="3.46879">
        <ele>25.09067</ele>
        <time>2021-05-07T15:48:11.919Z</time>
      </trkpt>
      <trkpt lat="50.50839" lon="3.46894">
        <ele>25.069321</ele>
        <time>2021-05-07T15:48:13.129Z</time>
      </trkpt>
      <trkpt lat="50.5084" lon="3.46941">
        <ele>25.001211</ele>
        <time>2021-05-07T15:48:17.095Z</time>
      </trkpt>
      <trkpt lat="50.5085" lon="3.46978">
        <ele>24.942709</ele>
        <time>2021-05-07T15:48:20.515Z</time>
      </trkpt>
      <trkpt lat="50.50871" lon="3.47017">
        <ele>24.806709</ele>
        <time>2021-05-07T15:48:24.836Z</time>
      </trkpt>
      <trkpt lat="50.50899" lon="3.47062">
        <ele>24.612788</ele>
        <time>2021-05-07T15:48:30.114Z</time>
      </trkpt>
      <trkpt lat="50.50936" lon="3.47116">
        <ele>24.365014</ele>
        <time>2021-05-07T15:48:36.773Z</time>
      </trkpt>
      <trkpt lat="50.50985" lon="3.47169">
        <ele>24.072949</ele>
        <time>2021-05-07T15:48:44.795Z</time>
      </trkpt>
      <trkpt lat="50.51052" lon="3.47236">
        <ele>23.734235</ele>
        <time>2021-05-07T15:48:55.424Z</time>
      </trkpt>
      <trkpt lat="50.51059" lon="3.47247">
        <ele>23.694219</ele>
        <time>2021-05-07T15:48:56.715Z</time>
      </trkpt>
      <trkpt lat="50.51066" lon="3.47262">
        <ele>23.643319</ele>
        <time>2021-05-07T15:48:58.338Z</time>
      </trkpt>
      <trkpt lat="50.51065" lon="3.47278">
        <ele>23.599584</ele>
        <time>2021-05-07T15:48:59.756Z</time>
      </trkpt>
      <trkpt lat="50.51006" lon="3.47445">
        <ele>23.019954</ele>
        <time>2021-05-07T15:49:16.081Z</time>
      </trkpt>
      <trkpt lat="50.51016" lon="3.47475">
        <ele>22.896727</ele>
        <time>2021-05-07T15:49:19.023Z</time>
      </trkpt>
      <trkpt lat="50.51082" lon="3.4755">
        <ele>22.435944</ele>
        <time>2021-05-07T15:49:29.512Z</time>
      </trkpt>
      <trkpt lat="50.51104" lon="3.47596">
        <ele>22.236256</ele>
        <time>2021-05-07T15:49:34.176Z</time>
      </trkpt>
      <trkpt lat="50.5111" lon="3.47622">
        <ele>22.160519</ele>
        <time>2021-05-07T15:49:36.386Z</time>
      </trkpt>
      <trkpt lat="50.51109" lon="3.47654">
        <ele>22.075367</ele>
        <time>2021-05-07T15:49:39.095Z</time>
      </trkpt>
      <trkpt lat="50.51104" lon="3.47687">
        <ele>21.983885</ele>
        <time>2021-05-07T15:49:41.831Z</time>
      </trkpt>
      <trkpt lat="50.5108" lon="3.47774">
        <ele>21.726702</ele>
        <time>2021-05-07T15:49:50.103Z</time>
      </trkpt>
      <trkpt lat="50.51082" lon="3.47786">
        <ele>21.694483</ele>
        <time>2021-05-07T15:49:51.018Z</time>
      </trkpt>
      <trkpt lat="50.5109" lon="3.47798">
        <ele>21.646367</ele>
        <time>2021-05-07T15:49:52.801Z</time>
      </trkpt>
      <trkpt lat="50.51109" lon="3.47824">
        <ele>21.541066</ele>
        <time>2021-05-07T15:49:56.186Z</time>
      </trkpt>
      <trkpt lat="50.51122" lon="3.47856">
        <ele>21.495036</ele>
        <time>2021-05-07T15:49:59.949Z</time>
      </trkpt>
      <trkpt lat="50.51125" lon="3.47964">
        <ele>21.484169</ele>
        <time>2021-05-07T15:50:10.052Z</time>
      </trkpt>
      <trkpt lat="50.51129" lon="3.48001">
        <ele>21.480392</ele>
        <time>2021-05-07T15:50:13.477Z</time>
      </trkpt>
      <trkpt lat="50.51132" lon="3.48019">
        <ele>21.478531</ele>
        <time>2021-05-07T15:50:15.491Z</time>
      </trkpt>
      <trkpt lat="50.51138" lon="3.48111">
        <ele>21.469258</ele>
        <time>2021-05-07T15:50:24.289Z</time>
      </trkpt>
      <trkpt lat="50.51143" lon="3.48169">
        <ele>21.487983</ele>
        <time>2021-05-07T15:50:29.762Z</time>
      </trkpt>
      <trkpt lat="50.51135" lon="3.48237">
        <ele>21.512089</ele>
        <time>2021-05-07T15:50:36.207Z</time>
      </trkpt>
      <trkpt lat="50.5113" lon="3.48251">
        <ele>21.517454</ele>
        <time>2021-05-07T15:50:37.672Z</time>
      </trkpt>
      <trkpt lat="50.5112" lon="3.48278">
        <ele>21.528567</ele>
        <time>2021-05-07T15:50:40.454Z</time>
      </trkpt>
      <trkpt lat="50.511" lon="3.48334">
        <ele>21.551076</ele>
        <time>2021-05-07T15:50:46.648Z</time>
      </trkpt>
      <trkpt lat="50.51092" lon="3.48355">
        <ele>21.55933</ele>
        <time>2021-05-07T15:50:49.087Z</time>
      </trkpt>
      <trkpt lat="50.51087" lon="3.48377">
        <ele>21.568417</ele>
        <time>2021-05-07T15:50:51.461Z</time>
      </trkpt>
      <trkpt lat="50.51085" lon="3.48416">
        <ele>21.740926</ele>
        <time>2021-05-07T15:50:55.781Z</time>
      </trkpt>
      <trkpt lat="50.51082" lon="3.4846">
        <ele>21.935074</ele>
        <time>2021-05-07T15:51:00.477Z</time>
      </trkpt>
      <trkpt lat="50.5108" lon="3.48506">
        <ele>22.138703</ele>
        <time>2021-05-07T15:51:05.605Z</time>
      </trkpt>
      <trkpt lat="50.51082" lon="3.48534">
        <ele>22.261689</ele>
        <time>2021-05-07T15:51:08.769Z</time>
      </trkpt>
      <trkpt lat="50.51087" lon="3.48604">
        <ele>22.571525</ele>
        <time>2021-05-07T15:51:16.977Z</time>
      </trkpt>
      <trkpt lat="50.51084" lon="3.48625">
        <ele>22.66673</ele>
        <time>2021-05-07T15:51:19.702Z</time>
      </trkpt>
      <trkpt lat="50.51065" lon="3.48691">
        <ele>22.892192</ele>
        <time>2021-05-07T15:51:28.266Z</time>
      </trkpt>
      <trkpt lat="50.5108" lon="3.48708">
        <ele>22.950656</ele>
        <time>2021-05-07T15:51:31.495Z</time>
      </trkpt>
      <trkpt lat="50.51096" lon="3.4873">
        <ele>23.021602</ele>
        <time>2021-05-07T15:51:35.285Z</time>
      </trkpt>
      <trkpt lat="50.51113" lon="3.48814">
        <ele>23.20377</ele>
        <time>2021-05-07T15:51:44.724Z</time>
      </trkpt>
      <trkpt lat="50.51135" lon="3.4885">
        <ele>23.307077</ele>
        <time>2021-05-07T15:51:49.290Z</time>
      </trkpt>
      <trkpt lat="50.5114" lon="3.48867">
        <ele>23.346933</ele>
        <time>2021-05-07T15:51:51.172Z</time>
      </trkpt>
      <trkpt lat="50.51144" lon="3.48878">
        <ele>23.371718</ele>
        <time>2021-05-07T15:51:52.065Z</time>
      </trkpt>
      <trkpt lat="50.5114" lon="3.48908">
        <ele>23.315843</ele>
        <time>2021-05-07T15:51:54.997Z</time>
      </trkpt>
      <trkpt lat="50.51084" lon="3.49038">
        <ele>22.598829</ele>
        <time>2021-05-07T15:52:07.651Z</time>
      </trkpt>
      <trkpt lat="50.5104" lon="3.49284">
        <ele>21.658379</ele>
        <time>2021-05-07T15:52:27.833Z</time>
      </trkpt>
      <trkpt lat="50.51039" lon="3.49338">
        <ele>21.492024</ele>
        <time>2021-05-07T15:52:32.547Z</time>
      </trkpt>
      <trkpt lat="50.51048" lon="3.49357">
        <ele>21.41964</ele>
        <time>2021-05-07T15:52:34.675Z</time>
      </trkpt>
      <trkpt lat="50.51121" lon="3.49492">
        <ele>21.736367</ele>
        <time>2021-05-07T15:52:52.553Z</time>
      </trkpt>
      <trkpt lat="50.51187" lon="3.49526">
        <ele>22.183535</ele>
        <time>2021-05-07T15:53:05.609Z</time>
      </trkpt>
      <trkpt lat="50.51219" lon="3.4955">
        <ele>22.409392</ele>
        <time>2021-05-07T15:53:12.199Z</time>
      </trkpt>
      <trkpt lat="50.51269" lon="3.49574">
        <ele>22.821093</ele>
        <time>2021-05-07T15:53:21.967Z</time>
      </trkpt>
      <trkpt lat="50.51271" lon="3.4958">
        <ele>22.857761</ele>
        <time>2021-05-07T15:53:22.846Z</time>
      </trkpt>
      <trkpt lat="50.51281" lon="3.49649">
        <ele>23.211901</ele>
        <time>2021-05-07T15:53:30.940Z</time>
      </trkpt>
      <trkpt lat="50.51284" lon="3.49655">
        <ele>23.24708</ele>
        <time>2021-05-07T15:53:31.774Z</time>
      </trkpt>
      <trkpt lat="50.5129" lon="3.49667">
        <ele>23.329364</ele>
        <time>2021-05-07T15:53:33.662Z</time>
      </trkpt>
      <trkpt lat="50.51308" lon="3.49699">
        <ele>23.540242</ele>
        <time>2021-05-07T15:53:38.359Z</time>
      </trkpt>
      <trkpt lat="50.51322" lon="3.49739">
        <ele>23.766095</ele>
        <time>2021-05-07T15:53:43.437Z</time>
      </trkpt>
      <trkpt lat="50.51323" lon="3.49797">
        <ele>24.022543</ele>
        <time>2021-05-07T15:53:49.676Z</time>
      </trkpt>
      <trkpt lat="50.51322" lon="3.49943">
        <ele>24.652249</ele>
        <time>2021-05-07T15:54:05.794Z</time>
      </trkpt>
      <trkpt lat="50.51329" lon="3.49959">
        <ele>24.732623</ele>
        <time>2021-05-07T15:54:07.848Z</time>
      </trkpt>
      <trkpt lat="50.51349" lon="3.49997">
        <ele>24.949582</ele>
        <time>2021-05-07T15:54:13.612Z</time>
      </trkpt>
      <trkpt lat="50.51361" lon="3.50011">
        <ele>25.046448</ele>
        <time>2021-05-07T15:54:16.449Z</time>
      </trkpt>
      <trkpt lat="50.51365" lon="3.50016">
        <ele>25.077002</ele>
        <time>2021-05-07T15:54:17.483Z</time>
      </trkpt>
      <trkpt lat="50.51388" lon="3.50031">
        <ele>25.215745</ele>
        <time>2021-05-07T15:54:21.657Z</time>
      </trkpt>
      <trkpt lat="50.51394" lon="3.50042">
        <ele>25.269407</ele>
        <time>2021-05-07T15:54:23.652Z</time>
      </trkpt>
      <trkpt lat="50.51417" lon="3.50101">
        <ele>25.520548</ele>
        <time>2021-05-07T15:54:31.477Z</time>
      </trkpt>
      <trkpt lat="50.51429" lon="3.5015">
        <ele>25.708283</ele>
        <time>2021-05-07T15:54:37.426Z</time>
      </trkpt>
      <trkpt lat="50.51429" lon="3.50165">
        <ele>25.761747</ele>
        <time>2021-05-07T15:54:38.931Z</time>
      </trkpt>
      <trkpt lat="50.51413" lon="3.50213">
        <ele>25.956914</ele>
        <time>2021-05-07T15:54:44.882Z</time>
      </trkpt>
      <trkpt lat="50.51383" lon="3.50594">
        <ele>25.513283</ele>
        <time>2021-05-07T15:55:19.301Z</time>
      </trkpt>
      <trkpt lat="50.51385" lon="3.50682">
        <ele>25.209823</ele>
        <time>2021-05-07T15:55:26.614Z</time>
      </trkpt>
      <trkpt lat="50.51382" lon="3.50734">
        <ele>25.029776</ele>
        <time>2021-05-07T15:55:30.938Z</time>
      </trkpt>
      <trkpt lat="50.5137" lon="3.50913">
        <ele>24.351685</ele>
        <time>2021-05-07T15:55:45.680Z</time>
      </trkpt>
      <trkpt lat="50.51347" lon="3.51036">
        <ele>23.847508</ele>
        <time>2021-05-07T15:55:56.263Z</time>
      </trkpt>
      <trkpt lat="50.51339" lon="3.51141">
        <ele>23.468236</ele>
        <time>2021-05-07T15:56:05.027Z</time>
      </trkpt>
      <trkpt lat="50.51326" lon="3.51213">
        <ele>23.220427</ele>
        <time>2021-05-07T15:56:11.158Z</time>
      </trkpt>
      <trkpt lat="50.51244" lon="3.51405">
        <ele>22.768151</ele>
        <time>2021-05-07T15:56:31.039Z</time>
      </trkpt>
      <trkpt lat="50.51239" lon="3.51418">
        <ele>22.773484</ele>
        <time>2021-05-07T15:56:32.469Z</time>
      </trkpt>
      <trkpt lat="50.51226" lon="3.51449">
        <ele>22.785813</ele>
        <time>2021-05-07T15:56:35.967Z</time>
      </trkpt>
      <trkpt lat="50.51214" lon="3.51479">
        <ele>22.798114</ele>
        <time>2021-05-07T15:56:39.483Z</time>
      </trkpt>
      <trkpt lat="50.51205" lon="3.51506">
        <ele>22.808418</ele>
        <time>2021-05-07T15:56:42.524Z</time>
      </trkpt>
      <trkpt lat="50.51201" lon="3.51522">
        <ele>22.814307</ele>
        <time>2021-05-07T15:56:44.309Z</time>
      </trkpt>
      <trkpt lat="50.51197" lon="3.51535">
        <ele>22.819329</ele>
        <time>2021-05-07T15:56:45.967Z</time>
      </trkpt>
      <trkpt lat="50.51135" lon="3.51641">
        <ele>23.196043</ele>
        <time>2021-05-07T15:57:01.240Z</time>
      </trkpt>
      <trkpt lat="50.51124" lon="3.5167">
        <ele>23.31837</ele>
        <time>2021-05-07T15:57:04.968Z</time>
      </trkpt>
      <trkpt lat="50.51114" lon="3.51704">
        <ele>23.460894</ele>
        <time>2021-05-07T15:57:09.318Z</time>
      </trkpt>
      <trkpt lat="50.51104" lon="3.51739">
        <ele>23.603753</ele>
        <time>2021-05-07T15:57:13.699Z</time>
      </trkpt>
      <trkpt lat="50.51094" lon="3.5177">
        <ele>23.728337</ele>
        <time>2021-05-07T15:57:17.364Z</time>
      </trkpt>
      <trkpt lat="50.51093" lon="3.51776">
        <ele>23.75356</ele>
        <time>2021-05-07T15:57:18.130Z</time>
      </trkpt>
      <trkpt lat="50.51092" lon="3.51783">
        <ele>23.779866</ele>
        <time>2021-05-07T15:57:18.934Z</time>
      </trkpt>
      <trkpt lat="50.5109" lon="3.518">
        <ele>23.841969</ele>
        <time>2021-05-07T15:57:20.844Z</time>
      </trkpt>
      <trkpt lat="50.51095" lon="3.51812">
        <ele>23.885759</ele>
        <time>2021-05-07T15:57:22.981Z</time>
      </trkpt>
      <trkpt lat="50.51097" lon="3.51815">
        <ele>23.892175</ele>
        <time>2021-05-07T15:57:23.715Z</time>
      </trkpt>
      <trkpt lat="50.51101" lon="3.5182">
        <ele>23.900509</ele>
        <time>2021-05-07T15:57:24.681Z</time>
      </trkpt>
      <trkpt lat="50.51125" lon="3.51846">
        <ele>23.956482</ele>
        <time>2021-05-07T15:57:31.209Z</time>
      </trkpt>
      <trkpt lat="50.51185" lon="3.51902">
        <ele>24.089138</ele>
        <time>2021-05-07T15:57:45.932Z</time>
      </trkpt>
      <trkpt lat="50.51228" lon="3.51935">
        <ele>24.178578</ele>
        <time>2021-05-07T15:57:55.444Z</time>
      </trkpt>
      <trkpt lat="50.51256" lon="3.51954">
        <ele>24.218976</ele>
        <time>2021-05-07T15:58:01.440Z</time>
      </trkpt>
      <trkpt lat="50.51329" lon="3.51987">
        <ele>24.198032</ele>
        <time>2021-05-07T15:58:16.759Z</time>
      </trkpt>
      <trkpt lat="50.51345" lon="3.51994">
        <ele>24.1934</ele>
        <time>2021-05-07T15:58:20.065Z</time>
      </trkpt>
      <trkpt lat="50.51351" lon="3.51997">
        <ele>24.191719</ele>
        <time>2021-05-07T15:58:21.329Z</time>
      </trkpt>
      <trkpt lat="50.51355" lon="3.51998">
        <ele>24.190564</ele>
        <time>2021-05-07T15:58:22.196Z</time>
      </trkpt>
      <trkpt lat="50.51361" lon="3.52002">
        <ele>24.188764</ele>
        <time>2021-05-07T15:58:23.636Z</time>
      </trkpt>
      <trkpt lat="50.51378" lon="3.5203">
        <ele>24.182141</ele>
        <time>2021-05-07T15:58:28.413Z</time>
      </trkpt>
      <trkpt lat="50.51409" lon="3.52114">
        <ele>24.216095</ele>
        <time>2021-05-07T15:58:40.875Z</time>
      </trkpt>
      <trkpt lat="50.51432" lon="3.52181">
        <ele>24.304268</ele>
        <time>2021-05-07T15:58:50.932Z</time>
      </trkpt>
      <trkpt lat="50.51449" lon="3.52228">
        <ele>24.366669</ele>
        <time>2021-05-07T15:58:58.336Z</time>
      </trkpt>
      <trkpt lat="50.51455" lon="3.52244">
        <ele>24.388227</ele>
        <time>2021-05-07T15:59:00.816Z</time>
      </trkpt>
      <trkpt lat="50.5147" lon="3.52279">
        <ele>24.438036</ele>
        <time>2021-05-07T15:59:06.718Z</time>
      </trkpt>
      <trkpt lat="50.51474" lon="3.52286">
        <ele>24.447967</ele>
        <time>2021-05-07T15:59:07.851Z</time>
      </trkpt>
      <trkpt lat="50.51516" lon="3.52341">
        <ele>24.598016</ele>
        <time>2021-05-07T15:59:19.741Z</time>
      </trkpt>
      <trkpt lat="50.51552" lon="3.52391">
        <ele>24.774748</ele>
        <time>2021-05-07T15:59:29.770Z</time>
      </trkpt>
      <trkpt lat="50.51567" lon="3.52422">
        <ele>24.868663</ele>
        <time>2021-05-07T15:59:35.112Z</time>
      </trkpt>
      <trkpt lat="50.51612" lon="3.5255">
        <ele>25.218182</ele>
        <time>2021-05-07T15:59:55.583Z</time>
      </trkpt>
      <trkpt lat="50.51628" lon="3.52634">
        <ele>25.462767</ele>
        <time>2021-05-07T16:00:08.072Z</time>
      </trkpt>
      <trkpt lat="50.5163" lon="3.52659">
        <ele>25.532647</ele>
        <time>2021-05-07T16:00:11.721Z</time>
      </trkpt>
      <trkpt lat="50.51687" lon="3.52662">
        <ele>25.77944</ele>
        <time>2021-05-07T16:00:21.196Z</time>
      </trkpt>
      <trkpt lat="50.51698" lon="3.52662">
        <ele>25.827754</ele>
        <time>2021-05-07T16:00:23.056Z</time>
      </trkpt>
      <trkpt lat="50.51704" lon="3.52663">
        <ele>25.855611</ele>
        <time>2021-05-07T16:00:24.150Z</time>
      </trkpt>
      <trkpt lat="50.51708" lon="3.52663">
        <ele>25.872582</ele>
        <time>2021-05-07T16:00:24.757Z</time>
      </trkpt>
      <trkpt lat="50.51799" lon="3.52666">
        <ele>26.130683</ele>
        <time>2021-05-07T16:00:39.151Z</time>
      </trkpt>
      <trkpt lat="50.51846" lon="3.52668">
        <ele>26.250092</ele>
        <time>2021-05-07T16:00:46.616Z</time>
      </trkpt>
      <trkpt lat="50.51851" lon="3.52668">
        <ele>26.26311</ele>
        <time>2021-05-07T16:00:47.427Z</time>
      </trkpt>
      <trkpt lat="50.5187" lon="3.52669">
        <ele>26.30967</ele>
        <time>2021-05-07T16:00:50.237Z</time>
      </trkpt>
      <trkpt lat="50.519" lon="3.52671">
        <ele>26.383607</ele>
        <time>2021-05-07T16:00:54.726Z</time>
      </trkpt>
      <trkpt lat="50.51909" lon="3.52671">
        <ele>26.422701</ele>
        <time>2021-05-07T16:00:56.146Z</time>
      </trkpt>
      <trkpt lat="50.51922" lon="3.52672">
        <ele>26.51042</ele>
        <time>2021-05-07T16:00:58.231Z</time>
      </trkpt>
      <trkpt lat="50.51976" lon="3.52663">
        <ele>26.873189</ele>
        <time>2021-05-07T16:01:07.048Z</time>
      </trkpt>
      <trkpt lat="50.52054" lon="3.52645">
        <ele>27.408091</ele>
        <time>2021-05-07T16:01:21.072Z</time>
      </trkpt>
      <trkpt lat="50.52079" lon="3.52637">
        <ele>27.577784</ele>
        <time>2021-05-07T16:01:25.878Z</time>
      </trkpt>
      <trkpt lat="50.52109" lon="3.52626">
        <ele>27.98079</ele>
        <time>2021-05-07T16:01:32.312Z</time>
      </trkpt>
      <trkpt lat="50.52115" lon="3.52624">
        <ele>28.061817</ele>
        <time>2021-05-07T16:01:33.378Z</time>
      </trkpt>
      <trkpt lat="50.52239" lon="3.52579">
        <ele>29.843369</ele>
        <time>2021-05-07T16:01:59.949Z</time>
      </trkpt>
      <trkpt lat="50.5224" lon="3.52579">
        <ele>29.860588</ele>
        <time>2021-05-07T16:02:00.625Z</time>
      </trkpt>
      <trkpt lat="50.52285" lon="3.52565">
        <ele>30.346628</ele>
        <time>2021-05-07T16:02:10.001Z</time>
      </trkpt>
      <trkpt lat="50.52343" lon="3.52573">
        <ele>30.808771</ele>
        <time>2021-05-07T16:02:20.615Z</time>
      </trkpt>
      <trkpt lat="50.52355" lon="3.52578">
        <ele>30.906144</ele>
        <time>2021-05-07T16:02:23.293Z</time>
      </trkpt>
      <trkpt lat="50.52426" lon="3.52603">
        <ele>31.477903</ele>
        <time>2021-05-07T16:02:35.161Z</time>
      </trkpt>
      <trkpt lat="50.52508" lon="3.5263">
        <ele>31.722569</ele>
        <time>2021-05-07T16:02:48.235Z</time>
      </trkpt>
      <trkpt lat="50.52544" lon="3.5264">
        <ele>31.802915</ele>
        <time>2021-05-07T16:02:53.606Z</time>
      </trkpt>
      <trkpt lat="50.52563" lon="3.5264">
        <ele>31.844715</ele>
        <time>2021-05-07T16:02:56.390Z</time>
      </trkpt>
      <trkpt lat="50.52577" lon="3.52639">
        <ele>31.877634</ele>
        <time>2021-05-07T16:02:58.703Z</time>
      </trkpt>
      <trkpt lat="50.52583" lon="3.52638">
        <ele>31.890181</ele>
        <time>2021-05-07T16:02:59.781Z</time>
      </trkpt>
      <trkpt lat="50.52648" lon="3.52624">
        <ele>32.077683</ele>
        <time>2021-05-07T16:03:10.417Z</time>
      </trkpt>
      <trkpt lat="50.5271" lon="3.52592">
        <ele>32.30031</ele>
        <time>2021-05-07T16:03:21.687Z</time>
      </trkpt>
      <trkpt lat="50.52728" lon="3.52578">
        <ele>32.367775</ele>
        <time>2021-05-07T16:03:25.196Z</time>
      </trkpt>
      <trkpt lat="50.52745" lon="3.52564">
        <ele>32.432528</ele>
        <time>2021-05-07T16:03:28.094Z</time>
      </trkpt>
      <trkpt lat="50.52794" lon="3.52503">
        <ele>32.523324</ele>
        <time>2021-05-07T16:03:37.477Z</time>
      </trkpt>
      <trkpt lat="50.52824" lon="3.52458">
        <ele>32.440969</ele>
        <time>2021-05-07T16:03:43.385Z</time>
      </trkpt>
      <trkpt lat="50.52862" lon="3.52397">
        <ele>32.333546</ele>
        <time>2021-05-07T16:03:50.689Z</time>
      </trkpt>
      <trkpt lat="50.52947" lon="3.52253">
        <ele>32.228961</ele>
        <time>2021-05-07T16:04:08.196Z</time>
      </trkpt>
      <trkpt lat="50.52996" lon="3.52196">
        <ele>32.247936</ele>
        <time>2021-05-07T16:04:17.194Z</time>
      </trkpt>
      <trkpt lat="50.53002" lon="3.5219">
        <ele>32.250075</ele>
        <time>2021-05-07T16:04:18.481Z</time>
      </trkpt>
      <trkpt lat="50.53024" lon="3.52174">
        <ele>32.257767</ele>
        <time>2021-05-07T16:04:22.382Z</time>
      </trkpt>
      <trkpt lat="50.53028" lon="3.52172">
        <ele>32.25882</ele>
        <time>2021-05-07T16:04:22.869Z</time>
      </trkpt>
      <trkpt lat="50.53054" lon="3.52153">
        <ele>32.313128</ele>
        <time>2021-05-07T16:04:27.793Z</time>
      </trkpt>
      <trkpt lat="50.5308" lon="3.52139">
        <ele>32.466899</ele>
        <time>2021-05-07T16:04:32.461Z</time>
      </trkpt>
      <trkpt lat="50.53086" lon="3.52135">
        <ele>32.502227</ele>
        <time>2021-05-07T16:04:33.485Z</time>
      </trkpt>
      <trkpt lat="50.53099" lon="3.52127">
        <ele>32.580868</ele>
        <time>2021-05-07T16:04:35.964Z</time>
      </trkpt>
      <trkpt lat="50.53128" lon="3.52108">
        <ele>32.757485</ele>
        <time>2021-05-07T16:04:41.274Z</time>
      </trkpt>
      <trkpt lat="50.53142" lon="3.52096">
        <ele>32.844403</ele>
        <time>2021-05-07T16:04:44.097Z</time>
      </trkpt>
      <trkpt lat="50.53162" lon="3.52076">
        <ele>32.974573</ele>
        <time>2021-05-07T16:04:48.036Z</time>
      </trkpt>
      <trkpt lat="50.53219" lon="3.52013">
        <ele>33.454284</ele>
        <time>2021-05-07T16:04:59.858Z</time>
      </trkpt>
      <trkpt lat="50.53269" lon="3.51934">
        <ele>34.245138</ele>
        <time>2021-05-07T16:05:13.152Z</time>
      </trkpt>
      <trkpt lat="50.53411" lon="3.51602">
        <ele>37.614197</ele>
        <time>2021-05-07T16:06:05.083Z</time>
      </trkpt>
      <trkpt lat="50.53444" lon="3.51534">
        <ele>38.474196</ele>
        <time>2021-05-07T16:06:16.872Z</time>
      </trkpt>
      <trkpt lat="50.53463" lon="3.51504">
        <ele>38.92846</ele>
        <time>2021-05-07T16:06:22.842Z</time>
      </trkpt>
      <trkpt lat="50.53507" lon="3.51452">
        <ele>39.828104</ele>
        <time>2021-05-07T16:06:34.738Z</time>
      </trkpt>
      <trkpt lat="50.53609" lon="3.51345">
        <ele>41.727173</ele>
        <time>2021-05-07T16:07:00.763Z</time>
      </trkpt>
      <trkpt lat="50.53762" lon="3.51175">
        <ele>44.475496</ele>
        <time>2021-05-07T16:07:38.986Z</time>
      </trkpt>
      <trkpt lat="50.53793" lon="3.51141">
        <ele>45.03825</ele>
        <time>2021-05-07T16:07:46.716Z</time>
      </trkpt>
      <trkpt lat="50.538" lon="3.51134">
        <ele>45.155779</ele>
        <time>2021-05-07T16:07:48.609Z</time>
      </trkpt>
      <trkpt lat="50.5389" lon="3.51037">
        <ele>46.713504</ele>
        <time>2021-05-07T16:08:11.401Z</time>
      </trkpt>
      <trkpt lat="50.54045" lon="3.50916">
        <ele>48.758421</ele>
        <time>2021-05-07T16:08:45.877Z</time>
      </trkpt>
      <trkpt lat="50.54087" lon="3.5088">
        <ele>49.10324</ele>
        <time>2021-05-07T16:08:54.681Z</time>
      </trkpt>
      <trkpt lat="50.54111" lon="3.50861">
        <ele>49.294034</ele>
        <time>2021-05-07T16:08:59.393Z</time>
      </trkpt>
      <trkpt lat="50.54335" lon="3.50681">
        <ele>50.311559</ele>
        <time>2021-05-07T16:09:39.618Z</time>
      </trkpt>
      <trkpt lat="50.54361" lon="3.5067">
        <ele>50.40842</ele>
        <time>2021-05-07T16:09:43.757Z</time>
      </trkpt>
      <trkpt lat="50.54405" lon="3.50659">
        <ele>50.574636</ele>
        <time>2021-05-07T16:09:50.972Z</time>
      </trkpt>
      <trkpt lat="50.54425" lon="3.50662">
        <ele>50.651036</ele>
        <time>2021-05-07T16:09:54.329Z</time>
      </trkpt>
      <trkpt lat="50.5447" lon="3.50681">
        <ele>50.823407</ele>
        <time>2021-05-07T16:10:02.030Z</time>
      </trkpt>
      <trkpt lat="50.54519" lon="3.50719">
        <ele>50.982465</ele>
        <time>2021-05-07T16:10:11.208Z</time>
      </trkpt>
      <trkpt lat="50.54659" lon="3.50842">
        <ele>51.181382</ele>
        <time>2021-05-07T16:10:36.313Z</time>
      </trkpt>
      <trkpt lat="50.55017" lon="3.51151">
        <ele>48.49905</ele>
        <time>2021-05-07T16:11:28.349Z</time>
      </trkpt>
      <trkpt lat="50.55023" lon="3.51123">
        <ele>48.403983</ele>
        <time>2021-05-07T16:11:30.735Z</time>
      </trkpt>
      <trkpt lat="50.55053" lon="3.50962">
        <ele>47.868383</ele>
        <time>2021-05-07T16:11:44.668Z</time>
      </trkpt>
      <trkpt lat="50.55079" lon="3.50878">
        <ele>48.508695</ele>
        <time>2021-05-07T16:11:54.478Z</time>
      </trkpt>
      <trkpt lat="50.55095" lon="3.50843">
        <ele>48.877242</ele>
        <time>2021-05-07T16:11:59.637Z</time>
      </trkpt>
      <trkpt lat="50.5515" lon="3.51053">
        <ele>50.8938</ele>
        <time>2021-05-07T16:12:40.888Z</time>
      </trkpt>
      <trkpt lat="50.5517" lon="3.51085">
        <ele>51.339651</ele>
        <time>2021-05-07T16:12:49.654Z</time>
      </trkpt>
      <trkpt lat="50.55198" lon="3.5112">
        <ele>51.896392</ele>
        <time>2021-05-07T16:12:59.877Z</time>
      </trkpt>
      <trkpt lat="50.55241" lon="3.51175">
        <ele>52.765755</ele>
        <time>2021-05-07T16:13:14.261Z</time>
      </trkpt>
      <trkpt lat="50.55344" lon="3.51009">
        <ele>52.380492</ele>
        <time>2021-05-07T16:13:42.611Z</time>
      </trkpt>
      <trkpt lat="50.55359" lon="3.50981">
        <ele>52.265832</ele>
        <time>2021-05-07T16:13:46.476Z</time>
      </trkpt>
      <trkpt lat="50.55516" lon="3.50619">
        <ele>48.374276</ele>
        <time>2021-05-07T16:14:32.256Z</time>
      </trkpt>
      <trkpt lat="50.55609" lon="3.50416">
        <ele>45.92632</ele>
        <time>2021-05-07T16:14:58.446Z</time>
      </trkpt>
      <trkpt lat="50.55623" lon="3.50386">
        <ele>45.569352</ele>
        <time>2021-05-07T16:15:02.335Z</time>
      </trkpt>
      <trkpt lat="50.55771" lon="3.50084">
        <ele>41.717875</ele>
        <time>2021-05-07T16:15:42.507Z</time>
      </trkpt>
      <trkpt lat="50.55932" lon="3.49784">
        <ele>36.851408</ele>
        <time>2021-05-07T16:16:21.210Z</time>
      </trkpt>
      <trkpt lat="50.55999" lon="3.49661">
        <ele>35.612398</ele>
        <time>2021-05-07T16:16:38.201Z</time>
      </trkpt>
      <trkpt lat="50.56004" lon="3.49653">
        <ele>35.532667</ele>
        <time>2021-05-07T16:16:39.311Z</time>
      </trkpt>
      <trkpt lat="50.56212" lon="3.49318">
        <ele>35.514021</ele>
        <time>2021-05-07T16:17:42.792Z</time>
      </trkpt>
      <trkpt lat="50.56294" lon="3.49201">
        <ele>35.705403</ele>
        <time>2021-05-07T16:18:05.553Z</time>
      </trkpt>
      <trkpt lat="50.56356" lon="3.49122">
        <ele>36.045564</ele>
        <time>2021-05-07T16:18:21.747Z</time>
      </trkpt>
      <trkpt lat="50.56454" lon="3.49021">
        <ele>36.746977</ele>
        <time>2021-05-07T16:18:48.719Z</time>
      </trkpt>
      <trkpt lat="50.56457" lon="3.49018">
        <ele>36.788205</ele>
        <time>2021-05-07T16:18:49.923Z</time>
      </trkpt>
      <trkpt lat="50.56477" lon="3.48997">
        <ele>37.099458</ele>
        <time>2021-05-07T16:18:55.844Z</time>
      </trkpt>
      <trkpt lat="50.56621" lon="3.48853">
        <ele>39.115568</ele>
        <time>2021-05-07T16:19:40.370Z</time>
      </trkpt>
      <trkpt lat="50.56794" lon="3.48699">
        <ele>40.819976</ele>
        <time>2021-05-07T16:20:26.114Z</time>
      </trkpt>
      <trkpt lat="50.5685" lon="3.48661">
        <ele>41.265138</ele>
        <time>2021-05-07T16:20:39.995Z</time>
      </trkpt>
      <trkpt lat="50.56824" lon="3.48626">
        <ele>41.512889</ele>
        <time>2021-05-07T16:20:47.817Z</time>
      </trkpt>
      <trkpt lat="50.5685" lon="3.48661">
        <ele>41.792983</ele>
        <time>2021-05-07T16:20:55.814Z</time>
      </trkpt>
      <trkpt lat="50.56899" lon="3.48627">
        <ele>42.37639</ele>
        <time>2021-05-07T16:21:08.756Z</time>
      </trkpt>
      <trkpt lat="50.57126" lon="3.48492">
        <ele>44.880442</ele>
        <time>2021-05-07T16:22:09.352Z</time>
      </trkpt>
      <trkpt lat="50.57135" lon="3.48474">
        <ele>45.024437</ele>
        <time>2021-05-07T16:22:12.744Z</time>
      </trkpt>
      <trkpt lat="50.57132" lon="3.48419">
        <ele>45.364946</ele>
        <time>2021-05-07T16:22:20.726Z</time>
      </trkpt>
      <trkpt lat="50.57136" lon="3.48373">
        <ele>45.593852</ele>
        <time>2021-05-07T16:22:27.414Z</time>
      </trkpt>
      <trkpt lat="50.57147" lon="3.48311">
        <ele>45.892914</ele>
        <time>2021-05-07T16:22:36.331Z</time>
      </trkpt>
      <trkpt lat="50.57153" lon="3.48264">
        <ele>46.120093</ele>
        <time>2021-05-07T16:22:43.466Z</time>
      </trkpt>
      <trkpt lat="50.57169" lon="3.48155">
        <ele>46.640886</ele>
        <time>2021-05-07T16:22:59.897Z</time>
      </trkpt>
      <trkpt lat="50.57172" lon="3.481">
        <ele>47.016315</ele>
        <time>2021-05-07T16:23:08.355Z</time>
      </trkpt>
      <trkpt lat="50.57175" lon="3.4809">
        <ele>47.105331</ele>
        <time>2021-05-07T16:23:10.041Z</time>
      </trkpt>
      <trkpt lat="50.57179" lon="3.48099">
        <ele>47.196984</ele>
        <time>2021-05-07T16:23:11.776Z</time>
      </trkpt>
      <trkpt lat="50.57191" lon="3.48156">
        <ele>47.674675</ele>
        <time>2021-05-07T16:23:19.414Z</time>
      </trkpt>
      <trkpt lat="50.57235" lon="3.48362">
        <ele>49.005716</ele>
        <time>2021-05-07T16:23:47.738Z</time>
      </trkpt>
      <trkpt lat="50.5724" lon="3.48391">
        <ele>49.029918</ele>
        <time>2021-05-07T16:23:51.124Z</time>
      </trkpt>
      <trkpt lat="50.57246" lon="3.48417">
        <ele>49.05197</ele>
        <time>2021-05-07T16:23:53.753Z</time>
      </trkpt>
      <trkpt lat="50.57252" lon="3.48448">
        <ele>49.078251</ele>
        <time>2021-05-07T16:23:57.142Z</time>
      </trkpt>
      <trkpt lat="50.57263" lon="3.48501">
        <ele>49.123469</ele>
        <time>2021-05-07T16:24:02.275Z</time>
      </trkpt>
      <trkpt lat="50.57284" lon="3.48598">
        <ele>49.030497</ele>
        <time>2021-05-07T16:24:10.666Z</time>
      </trkpt>
      <trkpt lat="50.5728" lon="3.48625">
        <ele>48.786921</ele>
        <time>2021-05-07T16:24:12.701Z</time>
      </trkpt>
      <trkpt lat="50.57276" lon="3.48681">
        <ele>48.285591</ele>
        <time>2021-05-07T16:24:16.886Z</time>
      </trkpt>
      <trkpt lat="50.5726" lon="3.48755">
        <ele>47.592633</ele>
        <time>2021-05-07T16:24:22.545Z</time>
      </trkpt>
      <trkpt lat="50.57222" lon="3.48832">
        <ele>46.730806</ele>
        <time>2021-05-07T16:24:29.526Z</time>
      </trkpt>
      <trkpt lat="50.57001" lon="3.49062">
        <ele>43.453981</ele>
        <time>2021-05-07T16:25:01.198Z</time>
      </trkpt>
      <trkpt lat="50.56974" lon="3.49104">
        <ele>42.988356</ele>
        <time>2021-05-07T16:25:05.595Z</time>
      </trkpt>
      <trkpt lat="50.56949" lon="3.49173">
        <ele>42.36848</ele>
        <time>2021-05-07T16:25:11.547Z</time>
      </trkpt>
      <trkpt lat="50.5694" lon="3.492">
        <ele>42.21301</ele>
        <time>2021-05-07T16:25:13.915Z</time>
      </trkpt>
      <trkpt lat="50.56913" lon="3.49286">
        <ele>41.964406</ele>
        <time>2021-05-07T16:25:21.495Z</time>
      </trkpt>
      <trkpt lat="50.56905" lon="3.49312">
        <ele>41.892247</ele>
        <time>2021-05-07T16:25:23.866Z</time>
      </trkpt>
      <trkpt lat="50.56842" lon="3.49486">
        <ele>41.756565</ele>
        <time>2021-05-07T16:25:43.145Z</time>
      </trkpt>
      <trkpt lat="50.5682" lon="3.49568">
        <ele>42.126961</ele>
        <time>2021-05-07T16:25:53.229Z</time>
      </trkpt>
      <trkpt lat="50.56819" lon="3.49626">
        <ele>42.365901</ele>
        <time>2021-05-07T16:25:59.585Z</time>
      </trkpt>
      <trkpt lat="50.56822" lon="3.49679">
        <ele>42.586196</ele>
        <time>2021-05-07T16:26:05.456Z</time>
      </trkpt>
      <trkpt lat="50.56844" lon="3.49892">
        <ele>44.610494</ele>
        <time>2021-05-07T16:26:33.312Z</time>
      </trkpt>
      <trkpt lat="50.5685" lon="3.49946">
        <ele>45.160998</ele>
        <time>2021-05-07T16:26:41.337Z</time>
      </trkpt>
      <trkpt lat="50.56858" lon="3.50046">
        <ele>46.46149</ele>
        <time>2021-05-07T16:27:00.273Z</time>
      </trkpt>
      <trkpt lat="50.56865" lon="3.50117">
        <ele>47.524742</ele>
        <time>2021-05-07T16:27:14.205Z</time>
      </trkpt>
      <trkpt lat="50.56875" lon="3.50197">
        <ele>48.711703</ele>
        <time>2021-05-07T16:27:29.986Z</time>
      </trkpt>
      <trkpt lat="50.56897" lon="3.50369">
        <ele>50.865495</ele>
        <time>2021-05-07T16:28:01.362Z</time>
      </trkpt>
      <trkpt lat="50.56894" lon="3.50499">
        <ele>52.257118</ele>
        <time>2021-05-07T16:28:23.066Z</time>
      </trkpt>
      <trkpt lat="50.56894" lon="3.50501">
        <ele>52.279614</ele>
        <time>2021-05-07T16:28:23.712Z</time>
      </trkpt>
      <trkpt lat="50.56888" lon="3.50673">
        <ele>53.589076</ele>
        <time>2021-05-07T16:28:51.912Z</time>
      </trkpt>
      <trkpt lat="50.56886" lon="3.50698">
        <ele>53.754317</ele>
        <time>2021-05-07T16:28:55.768Z</time>
      </trkpt>
      <trkpt lat="50.56884" lon="3.50727">
        <ele>53.947767</ele>
        <time>2021-05-07T16:29:00.463Z</time>
      </trkpt>
      <trkpt lat="50.56881" lon="3.50805">
        <ele>54.466865</ele>
        <time>2021-05-07T16:29:11.927Z</time>
      </trkpt>
      <trkpt lat="50.56881" lon="3.50837">
        <ele>54.607185</ele>
        <time>2021-05-07T16:29:16.268Z</time>
      </trkpt>
      <trkpt lat="50.5689" lon="3.50852">
        <ele>54.610176</ele>
        <time>2021-05-07T16:29:19.072Z</time>
      </trkpt>
      <trkpt lat="50.56955" lon="3.50881">
        <ele>54.625616</ele>
        <time>2021-05-07T16:29:32.952Z</time>
      </trkpt>
      <trkpt lat="50.56989" lon="3.50887">
        <ele>54.633345</ele>
        <time>2021-05-07T16:29:39.458Z</time>
      </trkpt>
      <trkpt lat="50.57006" lon="3.50892">
        <ele>54.637363</ele>
        <time>2021-05-07T16:29:42.865Z</time>
      </trkpt>
      <trkpt lat="50.57017" lon="3.50896">
        <ele>54.639967</ele>
        <time>2021-05-07T16:29:44.420Z</time>
      </trkpt>
      <trkpt lat="50.57028" lon="3.50919">
        <ele>54.644204</ele>
        <time>2021-05-07T16:29:46.996Z</time>
      </trkpt>
      <trkpt lat="50.57049" lon="3.51075">
        <ele>54.973803</ele>
        <time>2021-05-07T16:30:02.176Z</time>
      </trkpt>
      <trkpt lat="50.57069" lon="3.51155">
        <ele>55.17231</ele>
        <time>2021-05-07T16:30:11.280Z</time>
      </trkpt>
      <trkpt lat="50.57082" lon="3.51198">
        <ele>55.280018</ele>
        <time>2021-05-07T16:30:16.622Z</time>
      </trkpt>
      <trkpt lat="50.57136" lon="3.51318">
        <ele>56.663301</ele>
        <time>2021-05-07T16:30:35.150Z</time>
      </trkpt>
      <trkpt lat="50.57175" lon="3.5139">
        <ele>57.595683</ele>
        <time>2021-05-07T16:30:48.338Z</time>
      </trkpt>
      <trkpt lat="50.57213" lon="3.51454">
        <ele>58.581097</ele>
        <time>2021-05-07T16:31:01.604Z</time>
      </trkpt>
      <trkpt lat="50.5728" lon="3.51556">
        <ele>60.539577</ele>
        <time>2021-05-07T16:31:23.441Z</time>
      </trkpt>
      <trkpt lat="50.57284" lon="3.51565">
        <ele>60.696456</ele>
        <time>2021-05-07T16:31:25.615Z</time>
      </trkpt>
      <trkpt lat="50.57281" lon="3.51578">
        <ele>60.880498</ele>
        <time>2021-05-07T16:31:27.606Z</time>
      </trkpt>
      <trkpt lat="50.57205" lon="3.51728">
        <ele>62.890753</ele>
        <time>2021-05-07T16:31:54.834Z</time>
      </trkpt>
      <trkpt lat="50.57195" lon="3.5176">
        <ele>63.201118</ele>
        <time>2021-05-07T16:31:59.723Z</time>
      </trkpt>
      <trkpt lat="50.57208" lon="3.51782">
        <ele>63.455423</ele>
        <time>2021-05-07T16:32:03.276Z</time>
      </trkpt>
      <trkpt lat="50.577" lon="3.5236">
        <ele>68.052698</ele>
        <time>2021-05-07T16:33:51.185Z</time>
      </trkpt>
      <trkpt lat="50.57726" lon="3.52407">
        <ele>68.210413</ele>
        <time>2021-05-07T16:33:58.099Z</time>
      </trkpt>
      <trkpt lat="50.57739" lon="3.52426">
        <ele>68.281604</ele>
        <time>2021-05-07T16:34:01.433Z</time>
      </trkpt>
      <trkpt lat="50.57843" lon="3.52585">
        <ele>68.576863</ele>
        <time>2021-05-07T16:34:24.449Z</time>
      </trkpt>
      <trkpt lat="50.58138" lon="3.53033">
        <ele>66.135215</ele>
        <time>2021-05-07T16:35:17.337Z</time>
      </trkpt>
      <trkpt lat="50.58149" lon="3.53044">
        <ele>66.036102</ele>
        <time>2021-05-07T16:35:19.053Z</time>
      </trkpt>
      <trkpt lat="50.58234" lon="3.5307">
        <ele>65.382774</ele>
        <time>2021-05-07T16:35:30.001Z</time>
      </trkpt>
      <trkpt lat="50.58277" lon="3.5308">
        <ele>64.788145</ele>
        <time>2021-05-07T16:35:35.354Z</time>
      </trkpt>
      <trkpt lat="50.58271" lon="3.5312">
        <ele>64.431552</ele>
        <time>2021-05-07T16:35:38.455Z</time>
      </trkpt>
      <trkpt lat="50.5825" lon="3.53259">
        <ele>63.201046</ele>
        <time>2021-05-07T16:35:48.932Z</time>
      </trkpt>
      <trkpt lat="50.58243" lon="3.53285">
        <ele>62.952749</ele>
        <time>2021-05-07T16:35:50.877Z</time>
      </trkpt>
      <trkpt lat="50.58243" lon="3.53391">
        <ele>61.691916</ele>
        <time>2021-05-07T16:35:58.419Z</time>
      </trkpt>
      <trkpt lat="50.58247" lon="3.53578">
        <ele>59.494145</ele>
        <time>2021-05-07T16:36:11.504Z</time>
      </trkpt>
      <trkpt lat="50.58257" lon="3.53667">
        <ele>58.608757</ele>
        <time>2021-05-07T16:36:18.024Z</time>
      </trkpt>
      <trkpt lat="50.58268" lon="3.53758">
        <ele>57.703749</ele>
        <time>2021-05-07T16:36:24.781Z</time>
      </trkpt>
      <trkpt lat="50.58317" lon="3.5401">
        <ele>56.103061</ele>
        <time>2021-05-07T16:36:44.852Z</time>
      </trkpt>
      <trkpt lat="50.58325" lon="3.54142">
        <ele>55.886649</ele>
        <time>2021-05-07T16:36:57.160Z</time>
      </trkpt>
      <trkpt lat="50.58328" lon="3.54173">
        <ele>56.17032</ele>
        <time>2021-05-07T16:37:00.592Z</time>
      </trkpt>
      <trkpt lat="50.58271" lon="3.54171">
        <ele>56.999539</ele>
        <time>2021-05-07T16:37:11.708Z</time>
      </trkpt>
      <trkpt lat="50.58269" lon="3.54247">
        <ele>57.702294</ele>
        <time>2021-05-07T16:37:23.115Z</time>
      </trkpt>
      <trkpt lat="50.58262" lon="3.54377">
        <ele>58.965306</ele>
        <time>2021-05-07T16:37:43.271Z</time>
      </trkpt>
      <trkpt lat="50.58264" lon="3.54401">
        <ele>59.212771</ele>
        <time>2021-05-07T16:37:47.231Z</time>
      </trkpt>
      <trkpt lat="50.58264" lon="3.54426">
        <ele>59.467454</ele>
        <time>2021-05-07T16:37:51.187Z</time>
      </trkpt>
      <trkpt lat="50.58265" lon="3.54442">
        <ele>59.631636</ele>
        <time>2021-05-07T16:37:53.475Z</time>
      </trkpt>
      <trkpt lat="50.58283" lon="3.54534">
        <ele>60.602411</ele>
        <time>2021-05-07T16:38:06.532Z</time>
      </trkpt>
      <trkpt lat="50.58285" lon="3.54558">
        <ele>60.845403</ele>
        <time>2021-05-07T16:38:09.350Z</time>
      </trkpt>
      <trkpt lat="50.58325" lon="3.54713">
        <ele>60.501596</ele>
        <time>2021-05-07T16:38:24.202Z</time>
      </trkpt>
      <trkpt lat="50.58342" lon="3.54782">
        <ele>60.169978</ele>
        <time>2021-05-07T16:38:29.794Z</time>
      </trkpt>
      <trkpt lat="50.58347" lon="3.54815">
        <ele>60.020447</ele>
        <time>2021-05-07T16:38:33.269Z</time>
      </trkpt>
      <trkpt lat="50.58371" lon="3.54909">
        <ele>59.45617</ele>
        <time>2021-05-07T16:38:43.897Z</time>
      </trkpt>
      <trkpt lat="50.58447" lon="3.55089">
        <ele>58.127963</ele>
        <time>2021-05-07T16:39:07.875Z</time>
      </trkpt>
      <trkpt lat="50.58456" lon="3.55118">
        <ele>58.129883</ele>
        <time>2021-05-07T16:39:11.857Z</time>
      </trkpt>
      <trkpt lat="50.58462" lon="3.55143">
        <ele>58.139277</ele>
        <time>2021-05-07T16:39:15.452Z</time>
      </trkpt>
      <trkpt lat="50.58467" lon="3.55203">
        <ele>58.16098</ele>
        <time>2021-05-07T16:39:23.558Z</time>
      </trkpt>
      <trkpt lat="50.58476" lon="3.55275">
        <ele>58.18735</ele>
        <time>2021-05-07T16:39:33.464Z</time>
      </trkpt>
      <trkpt lat="50.58492" lon="3.55335">
        <ele>58.210846</ele>
        <time>2021-05-07T16:39:42.372Z</time>
      </trkpt>
      <trkpt lat="50.58502" lon="3.55351">
        <ele>58.218834</ele>
        <time>2021-05-07T16:39:45.567Z</time>
      </trkpt>
      <trkpt lat="50.58505" lon="3.55365">
        <ele>58.205252</ele>
        <time>2021-05-07T16:39:47.579Z</time>
      </trkpt>
      <trkpt lat="50.58482" lon="3.55524">
        <ele>57.959965</ele>
        <time>2021-05-07T16:40:08.435Z</time>
      </trkpt>
      <trkpt lat="50.58482" lon="3.55585">
        <ele>57.867851</ele>
        <time>2021-05-07T16:40:15.748Z</time>
      </trkpt>
      <trkpt lat="50.58502" lon="3.55766">
        <ele>57.104413</ele>
        <time>2021-05-07T16:40:36.305Z</time>
      </trkpt>
      <trkpt lat="50.58497" lon="3.5596">
        <ele>56.126479</ele>
        <time>2021-05-07T16:40:58.312Z</time>
      </trkpt>
      <trkpt lat="50.58448" lon="3.56163">
        <ele>55.097433</ele>
        <time>2021-05-07T16:41:23.207Z</time>
      </trkpt>
      <trkpt lat="50.58443" lon="3.56246">
        <ele>54.697454</ele>
        <time>2021-05-07T16:41:32.768Z</time>
      </trkpt>
      <trkpt lat="50.58437" lon="3.5629">
        <ele>54.478599</ele>
        <time>2021-05-07T16:41:37.922Z</time>
      </trkpt>
      <trkpt lat="50.58425" lon="3.56383">
        <ele>54.02335</ele>
        <time>2021-05-07T16:41:48.573Z</time>
      </trkpt>
      <trkpt lat="50.5838" lon="3.56481">
        <ele>53.602638</ele>
        <time>2021-05-07T16:42:02.179Z</time>
      </trkpt>
      <trkpt lat="50.58352" lon="3.5657">
        <ele>53.517968</ele>
        <time>2021-05-07T16:42:14.120Z</time>
      </trkpt>
      <trkpt lat="50.5834" lon="3.56622">
        <ele>53.471179</ele>
        <time>2021-05-07T16:42:21.019Z</time>
      </trkpt>
      <trkpt lat="50.58303" lon="3.56836">
        <ele>54.146699</ele>
        <time>2021-05-07T16:42:52.602Z</time>
      </trkpt>
      <trkpt lat="50.58289" lon="3.57001">
        <ele>55.097819</ele>
        <time>2021-05-07T16:43:19.351Z</time>
      </trkpt>
      <trkpt lat="50.58282" lon="3.57095">
        <ele>55.739711</ele>
        <time>2021-05-07T16:43:34.713Z</time>
      </trkpt>
      <trkpt lat="50.58276" lon="3.57168">
        <ele>56.230633</ele>
        <time>2021-05-07T16:43:46.290Z</time>
      </trkpt>
      <trkpt lat="50.58262" lon="3.57341">
        <ele>56.812568</ele>
        <time>2021-05-07T16:44:12.014Z</time>
      </trkpt>
      <trkpt lat="50.58273" lon="3.57427">
        <ele>56.713294</ele>
        <time>2021-05-07T16:44:23.034Z</time>
      </trkpt>
      <trkpt lat="50.58289" lon="3.57491">
        <ele>56.636393</ele>
        <time>2021-05-07T16:44:31.031Z</time>
      </trkpt>
      <trkpt lat="50.58297" lon="3.57518">
        <ele>56.601441</ele>
        <time>2021-05-07T16:44:34.409Z</time>
      </trkpt>
      <trkpt lat="50.58321" lon="3.57617">
        <ele>55.998174</ele>
        <time>2021-05-07T16:44:46.201Z</time>
      </trkpt>
      <trkpt lat="50.58343" lon="3.5773">
        <ele>55.192216</ele>
        <time>2021-05-07T16:44:58.884Z</time>
      </trkpt>
      <trkpt lat="50.58352" lon="3.57784">
        <ele>54.816719</ele>
        <time>2021-05-07T16:45:04.921Z</time>
      </trkpt>
      <trkpt lat="50.58366" lon="3.57849">
        <ele>54.487979</ele>
        <time>2021-05-07T16:45:12.461Z</time>
      </trkpt>
      <trkpt lat="50.5838" lon="3.57911">
        <ele>54.250648</ele>
        <time>2021-05-07T16:45:19.737Z</time>
      </trkpt>
      <trkpt lat="50.58402" lon="3.58003">
        <ele>53.895869</ele>
        <time>2021-05-07T16:45:31.462Z</time>
      </trkpt>
      <trkpt lat="50.58452" lon="3.58064">
        <ele>53.618248</ele>
        <time>2021-05-07T16:45:44.151Z</time>
      </trkpt>
      <trkpt lat="50.58476" lon="3.5801">
        <ele>53.603571</ele>
        <time>2021-05-07T16:45:52.538Z</time>
      </trkpt>
      <trkpt lat="50.58491" lon="3.5797">
        <ele>53.592894</ele>
        <time>2021-05-07T16:45:58.629Z</time>
      </trkpt>
      <trkpt lat="50.58505" lon="3.57949">
        <ele>53.5862</ele>
        <time>2021-05-07T16:46:02.376Z</time>
      </trkpt>
      <trkpt lat="50.58512" lon="3.57942">
        <ele>53.583257</ele>
        <time>2021-05-07T16:46:04.272Z</time>
      </trkpt>
      <trkpt lat="50.58519" lon="3.57935">
        <ele>53.580303</ele>
        <time>2021-05-07T16:46:05.845Z</time>
      </trkpt>
      <trkpt lat="50.58533" lon="3.57924">
        <ele>53.574749</ele>
        <time>2021-05-07T16:46:08.978Z</time>
      </trkpt>
      <trkpt lat="50.58574" lon="3.57915">
        <ele>53.559433</ele>
        <time>2021-05-07T16:46:17.764Z</time>
      </trkpt>
      <trkpt lat="50.58728" lon="3.57922">
        <ele>52.866857</ele>
        <time>2021-05-07T16:46:46.818Z</time>
      </trkpt>
      <trkpt lat="50.58759" lon="3.5792">
        <ele>52.692058</ele>
        <time>2021-05-07T16:46:52.286Z</time>
      </trkpt>
      <trkpt lat="50.58813" lon="3.5791">
        <ele>52.106715</ele>
        <time>2021-05-07T16:47:01.747Z</time>
      </trkpt>
      <trkpt lat="50.58871" lon="3.57886">
        <ele>51.458216</ele>
        <time>2021-05-07T16:47:12.071Z</time>
      </trkpt>
      <trkpt lat="50.59041" lon="3.57748">
        <ele>49.352619</ele>
        <time>2021-05-07T16:47:44.139Z</time>
      </trkpt>
      <trkpt lat="50.59055" lon="3.57737">
        <ele>49.174259</ele>
        <time>2021-05-07T16:47:46.848Z</time>
      </trkpt>
      <trkpt lat="50.59114" lon="3.57724">
        <ele>48.773291</ele>
        <time>2021-05-07T16:47:57.464Z</time>
      </trkpt>
      <trkpt lat="50.59156" lon="3.57716">
        <ele>48.723994</ele>
        <time>2021-05-07T16:48:05.592Z</time>
      </trkpt>
      <trkpt lat="50.59177" lon="3.57705">
        <ele>48.698489</ele>
        <time>2021-05-07T16:48:09.973Z</time>
      </trkpt>
      <trkpt lat="50.59181" lon="3.57703">
        <ele>48.69365</ele>
        <time>2021-05-07T16:48:10.788Z</time>
      </trkpt>
      <trkpt lat="50.59184" lon="3.57701">
        <ele>48.689402</ele>
        <time>2021-05-07T16:48:11.457Z</time>
      </trkpt>
      <trkpt lat="50.59212" lon="3.57683">
        <ele>48.654292</ele>
        <time>2021-05-07T16:48:17.396Z</time>
      </trkpt>
      <trkpt lat="50.59297" lon="3.57624">
        <ele>49.101877</ele>
        <time>2021-05-07T16:48:37.902Z</time>
      </trkpt>
      <trkpt lat="50.593" lon="3.57622">
        <ele>49.136442</ele>
        <time>2021-05-07T16:48:38.531Z</time>
      </trkpt>
      <trkpt lat="50.59303" lon="3.5762">
        <ele>49.174971</ele>
        <time>2021-05-07T16:48:39.359Z</time>
      </trkpt>
      <trkpt lat="50.59294" lon="3.57555">
        <ele>49.688752</ele>
        <time>2021-05-07T16:48:47.941Z</time>
      </trkpt>
      <trkpt lat="50.59289" lon="3.57511">
        <ele>50.035959</ele>
        <time>2021-05-07T16:48:52.948Z</time>
      </trkpt>
      <trkpt lat="50.59295" lon="3.57512">
        <ele>50.112824</ele>
        <time>2021-05-07T16:48:54.749Z</time>
      </trkpt>
      <trkpt lat="50.59367" lon="3.57524">
        <ele>51.19493</ele>
        <time>2021-05-07T16:49:10.662Z</time>
      </trkpt>
      <trkpt lat="50.59434" lon="3.57628">
        <ele>53.421345</ele>
        <time>2021-05-07T16:49:32.926Z</time>
      </trkpt>
      <trkpt lat="50.59439" lon="3.57632">
        <ele>53.561869</ele>
        <time>2021-05-07T16:49:34.526Z</time>
      </trkpt>
      <trkpt lat="50.59448" lon="3.57631">
        <ele>53.763602</ele>
        <time>2021-05-07T16:49:37.057Z</time>
      </trkpt>
      <trkpt lat="50.59508" lon="3.57612">
        <ele>55.17701</ele>
        <time>2021-05-07T16:49:52.373Z</time>
      </trkpt>
      <trkpt lat="50.59561" lon="3.57581">
        <ele>56.196871</ele>
        <time>2021-05-07T16:50:07.596Z</time>
      </trkpt>
      <trkpt lat="50.59648" lon="3.57499">
        <ele>58.040534</ele>
        <time>2021-05-07T16:50:29.161Z</time>
      </trkpt>
      <trkpt lat="50.59676" lon="3.57483">
        <ele>58.224308</ele>
        <time>2021-05-07T16:50:34.362Z</time>
      </trkpt>
      <trkpt lat="50.59717" lon="3.57484">
        <ele>58.026241</ele>
        <time>2021-05-07T16:50:40.196Z</time>
      </trkpt>
      <trkpt lat="50.5975" lon="3.5748">
        <ele>57.867389</ele>
        <time>2021-05-07T16:50:44.531Z</time>
      </trkpt>
      <trkpt lat="50.59811" lon="3.57459">
        <ele>57.5637</ele>
        <time>2021-05-07T16:50:52.123Z</time>
      </trkpt>
      <trkpt lat="50.59826" lon="3.57458">
        <ele>57.494375</ele>
        <time>2021-05-07T16:50:53.775Z</time>
      </trkpt>
      <trkpt lat="50.59875" lon="3.57476">
        <ele>57.318339</ele>
        <time>2021-05-07T16:50:59.744Z</time>
      </trkpt>
      <trkpt lat="50.59892" lon="3.57468">
        <ele>57.265241</ele>
        <time>2021-05-07T16:51:02.135Z</time>
      </trkpt>
      <trkpt lat="50.599" lon="3.57459">
        <ele>57.234776</ele>
        <time>2021-05-07T16:51:03.273Z</time>
      </trkpt>
      <trkpt lat="50.5991" lon="3.57447">
        <ele>57.199007</ele>
        <time>2021-05-07T16:51:05.233Z</time>
      </trkpt>
      <trkpt lat="50.59977" lon="3.5738">
        <ele>56.959009</ele>
        <time>2021-05-07T16:51:17.197Z</time>
      </trkpt>
      <trkpt lat="50.60096" lon="3.573">
        <ele>57.201957</ele>
        <time>2021-05-07T16:51:39.122Z</time>
      </trkpt>
      <trkpt lat="50.60186" lon="3.57211">
        <ele>57.568886</ele>
        <time>2021-05-07T16:51:54.882Z</time>
      </trkpt>
      <trkpt lat="50.60223" lon="3.57198">
        <ele>57.746847</ele>
        <time>2021-05-07T16:52:00.699Z</time>
      </trkpt>
      <trkpt lat="50.6026" lon="3.57191">
        <ele>57.922455</ele>
        <time>2021-05-07T16:52:06.574Z</time>
      </trkpt>
      <trkpt lat="50.60266" lon="3.57193">
        <ele>57.951683</ele>
        <time>2021-05-07T16:52:07.432Z</time>
      </trkpt>
      <trkpt lat="50.60282" lon="3.57126">
        <ele>58.165885</ele>
        <time>2021-05-07T16:52:18.607Z</time>
      </trkpt>
      <trkpt lat="50.60295" lon="3.57076">
        <ele>58.498801</ele>
        <time>2021-05-07T16:52:27.016Z</time>
      </trkpt>
      <trkpt lat="50.60309" lon="3.57045">
        <ele>58.912997</ele>
        <time>2021-05-07T16:52:32.904Z</time>
      </trkpt>
      <trkpt lat="50.60335" lon="3.57011">
        <ele>59.483109</ele>
        <time>2021-05-07T16:52:41.730Z</time>
      </trkpt>
      <trkpt lat="50.60359" lon="3.56991">
        <ele>59.946979</ele>
        <time>2021-05-07T16:52:49.213Z</time>
      </trkpt>
      <trkpt lat="50.60383" lon="3.56979">
        <ele>60.374675</ele>
        <time>2021-05-07T16:52:56.718Z</time>
      </trkpt>
      <trkpt lat="50.60375" lon="3.5696">
        <ele>60.60964</ele>
        <time>2021-05-07T16:53:00.516Z</time>
      </trkpt>
      <trkpt lat="50.60337" lon="3.56838">
        <ele>61.661354</ele>
        <time>2021-05-07T16:53:25.446Z</time>
      </trkpt>
      <trkpt lat="50.60336" lon="3.56833">
        <ele>61.690838</ele>
        <time>2021-05-07T16:53:26.412Z</time>
      </trkpt>
      <trkpt lat="50.60338" lon="3.56831">
        <ele>61.707615</ele>
        <time>2021-05-07T16:53:26.968Z</time>
      </trkpt>
      <trkpt lat="50.60355" lon="3.56816">
        <ele>61.859273</ele>
        <time>2021-05-07T16:53:31.172Z</time>
      </trkpt>
      <trkpt lat="50.6041" lon="3.56763">
        <ele>62.349389</ele>
        <time>2021-05-07T16:53:42.574Z</time>
      </trkpt>
      <trkpt lat="50.60411" lon="3.5676">
        <ele>62.369507</ele>
        <time>2021-05-07T16:53:43.007Z</time>
      </trkpt>
      <trkpt lat="50.60431" lon="3.56733">
        <ele>62.570855</ele>
        <time>2021-05-07T16:53:46.382Z</time>
      </trkpt>
      <trkpt lat="50.60436" lon="3.56726">
        <ele>62.623643</ele>
        <time>2021-05-07T16:53:47.458Z</time>
      </trkpt>
      <trkpt lat="50.60461" lon="3.56689">
        <ele>62.25151</ele>
        <time>2021-05-07T16:53:51.635Z</time>
      </trkpt>
      <trkpt lat="50.60484" lon="3.56653">
        <ele>61.650312</ele>
        <time>2021-05-07T16:53:55.353Z</time>
      </trkpt>
      <trkpt lat="50.60505" lon="3.56619">
        <ele>61.089635</ele>
        <time>2021-05-07T16:53:58.714Z</time>
      </trkpt>
      <trkpt lat="50.60515" lon="3.56608">
        <ele>60.872326</ele>
        <time>2021-05-07T16:54:00.006Z</time>
      </trkpt>
      <trkpt lat="50.6052" lon="3.56602">
        <ele>60.756031</ele>
        <time>2021-05-07T16:54:00.708Z</time>
      </trkpt>
      <trkpt lat="50.6052" lon="3.56601">
        <ele>60.737842</ele>
        <time>2021-05-07T16:54:00.808Z</time>
      </trkpt>
      <trkpt lat="50.60527" lon="3.56593">
        <ele>60.574256</ele>
        <time>2021-05-07T16:54:01.780Z</time>
      </trkpt>
      <trkpt lat="50.60536" lon="3.56581">
        <ele>60.369882</ele>
        <time>2021-05-07T16:54:02.891Z</time>
      </trkpt>
      <trkpt lat="50.60575" lon="3.56532">
        <ele>59.447613</ele>
        <time>2021-05-07T16:54:08.185Z</time>
      </trkpt>
      <trkpt lat="50.60595" lon="3.56507">
        <ele>58.939384</ele>
        <time>2021-05-07T16:54:10.866Z</time>
      </trkpt>
      <trkpt lat="50.60623" lon="3.56473">
        <ele>58.233456</ele>
        <time>2021-05-07T16:54:14.615Z</time>
      </trkpt>
      <trkpt lat="50.60691" lon="3.56438">
        <ele>56.80472</ele>
        <time>2021-05-07T16:54:22.408Z</time>
      </trkpt>
      <trkpt lat="50.60723" lon="3.56403">
        <ele>56.034564</ele>
        <time>2021-05-07T16:54:26.947Z</time>
      </trkpt>
      <trkpt lat="50.60756" lon="3.56512">
        <ele>55.132004</ele>
        <time>2021-05-07T16:54:40.292Z</time>
      </trkpt>
      <trkpt lat="50.609" lon="3.56964">
        <ele>52.372033</ele>
        <time>2021-05-07T16:55:36.313Z</time>
      </trkpt>
      <trkpt lat="50.60905" lon="3.56985">
        <ele>52.41592</ele>
        <time>2021-05-07T16:55:38.996Z</time>
      </trkpt>
      <trkpt lat="50.60901" lon="3.57">
        <ele>52.449189</ele>
        <time>2021-05-07T16:55:41.356Z</time>
      </trkpt>
      <trkpt lat="50.6086" lon="3.57058">
        <ele>52.620502</ele>
        <time>2021-05-07T16:55:53.349Z</time>
      </trkpt>
      <trkpt lat="50.60844" lon="3.57081">
        <ele>52.688737</ele>
        <time>2021-05-07T16:55:58.378Z</time>
      </trkpt>
      <trkpt lat="50.60829" lon="3.57102">
        <ele>52.750654</ele>
        <time>2021-05-07T16:56:02.860Z</time>
      </trkpt>
      <trkpt lat="50.60782" lon="3.57158">
        <ele>53.075672</ele>
        <time>2021-05-07T16:56:14.144Z</time>
      </trkpt>
      <trkpt lat="50.60765" lon="3.57176">
        <ele>53.25291</ele>
        <time>2021-05-07T16:56:18.165Z</time>
      </trkpt>
      <trkpt lat="50.60758" lon="3.57204">
        <ele>53.418864</ele>
        <time>2021-05-07T16:56:22.024Z</time>
      </trkpt>
      <trkpt lat="50.60743" lon="3.5735">
        <ele>54.229268</ele>
        <time>2021-05-07T16:56:39.644Z</time>
      </trkpt>
      <trkpt lat="50.60726" lon="3.57409">
        <ele>54.313989</ele>
        <time>2021-05-07T16:56:46.192Z</time>
      </trkpt>
      <trkpt lat="50.60705" lon="3.57461">
        <ele>54.127677</ele>
        <time>2021-05-07T16:56:51.946Z</time>
      </trkpt>
      <trkpt lat="50.60679" lon="3.57516">
        <ele>53.918646</ele>
        <time>2021-05-07T16:56:57.964Z</time>
      </trkpt>
      <trkpt lat="50.60635" lon="3.57611">
        <ele>53.561068</ele>
        <time>2021-05-07T16:57:07.118Z</time>
      </trkpt>
      <trkpt lat="50.60607" lon="3.57697">
        <ele>52.898159</ele>
        <time>2021-05-07T16:57:14.361Z</time>
      </trkpt>
      <trkpt lat="50.60603" lon="3.57719">
        <ele>52.742577</ele>
        <time>2021-05-07T16:57:15.999Z</time>
      </trkpt>
      <trkpt lat="50.60627" lon="3.57744">
        <ele>52.421356</ele>
        <time>2021-05-07T16:57:19.336Z</time>
      </trkpt>
      <trkpt lat="50.60669" lon="3.57792">
        <ele>51.857943</ele>
        <time>2021-05-07T16:57:25.560Z</time>
      </trkpt>
      <trkpt lat="50.60687" lon="3.57804">
        <ele>51.643165</ele>
        <time>2021-05-07T16:57:27.942Z</time>
      </trkpt>
      <trkpt lat="50.60732" lon="3.57803">
        <ele>52.046723</ele>
        <time>2021-05-07T16:57:34.135Z</time>
      </trkpt>
      <trkpt lat="50.60754" lon="3.578">
        <ele>52.309897</ele>
        <time>2021-05-07T16:57:37.296Z</time>
      </trkpt>
      <trkpt lat="50.60786" lon="3.57791">
        <ele>52.695459</ele>
        <time>2021-05-07T16:57:43.158Z</time>
      </trkpt>
      <trkpt lat="50.60832" lon="3.57806">
        <ele>53.25274</ele>
        <time>2021-05-07T16:57:53.375Z</time>
      </trkpt>
      <trkpt lat="50.60869" lon="3.57808">
        <ele>53.690014</ele>
        <time>2021-05-07T16:58:02.818Z</time>
      </trkpt>
      <trkpt lat="50.60935" lon="3.57773">
        <ele>56.633196</ele>
        <time>2021-05-07T16:58:23.831Z</time>
      </trkpt>
      <trkpt lat="50.60969" lon="3.57755">
        <ele>58.19355</ele>
        <time>2021-05-07T16:58:35.937Z</time>
      </trkpt>
      <trkpt lat="50.61048" lon="3.57727">
        <ele>61.687293</ele>
        <time>2021-05-07T16:59:04.045Z</time>
      </trkpt>
      <trkpt lat="50.61079" lon="3.57704">
        <ele>63.140796</ele>
        <time>2021-05-07T16:59:16.279Z</time>
      </trkpt>
      <trkpt lat="50.61111" lon="3.57701">
        <ele>64.484313</ele>
        <time>2021-05-07T16:59:27.376Z</time>
      </trkpt>
      <trkpt lat="50.61233" lon="3.57715">
        <ele>69.325501</ele>
        <time>2021-05-07T17:00:04.519Z</time>
      </trkpt>
      <trkpt lat="50.61335" lon="3.57651">
        <ele>71.650579</ele>
        <time>2021-05-07T17:00:31.103Z</time>
      </trkpt>
      <trkpt lat="50.61376" lon="3.57629">
        <ele>72.567116</ele>
        <time>2021-05-07T17:00:39.970Z</time>
      </trkpt>
      <trkpt lat="50.61613" lon="3.57688">
        <ele>73.704308</ele>
        <time>2021-05-07T17:01:31.555Z</time>
      </trkpt>
      <trkpt lat="50.61661" lon="3.57686">
        <ele>73.796219</ele>
        <time>2021-05-07T17:01:41.157Z</time>
      </trkpt>
      <trkpt lat="50.61695" lon="3.57673">
        <ele>73.861152</ele>
        <time>2021-05-07T17:01:48.003Z</time>
      </trkpt>
      <trkpt lat="50.61889" lon="3.57466">
        <ele>74.832155</ele>
        <time>2021-05-07T17:02:39.785Z</time>
      </trkpt>
      <trkpt lat="50.61934" lon="3.57431">
        <ele>74.863347</ele>
        <time>2021-05-07T17:02:51.519Z</time>
      </trkpt>
      <trkpt lat="50.61961" lon="3.57416">
        <ele>74.88125</ele>
        <time>2021-05-07T17:02:57.837Z</time>
      </trkpt>
      <trkpt lat="50.61972" lon="3.57399">
        <ele>74.890928</ele>
        <time>2021-05-07T17:03:00.801Z</time>
      </trkpt>
      <trkpt lat="50.62016" lon="3.57344">
        <ele>74.926006</ele>
        <time>2021-05-07T17:03:12.092Z</time>
      </trkpt>
      <trkpt lat="50.62042" lon="3.57311">
        <ele>74.851098</ele>
        <time>2021-05-07T17:03:18.371Z</time>
      </trkpt>
      <trkpt lat="50.62076" lon="3.5726">
        <ele>74.328999</ele>
        <time>2021-05-07T17:03:26.636Z</time>
      </trkpt>
      <trkpt lat="50.62107" lon="3.57208">
        <ele>73.833924</ele>
        <time>2021-05-07T17:03:34.117Z</time>
      </trkpt>
      <trkpt lat="50.62112" lon="3.57169">
        <ele>73.554173</ele>
        <time>2021-05-07T17:03:38.288Z</time>
      </trkpt>
      <trkpt lat="50.62102" lon="3.57007">
        <ele>72.751327</ele>
        <time>2021-05-07T17:03:55.622Z</time>
      </trkpt>
      <trkpt lat="50.62087" lon="3.56931">
        <ele>72.533568</ele>
        <time>2021-05-07T17:04:05.148Z</time>
      </trkpt>
      <trkpt lat="50.62063" lon="3.5684">
        <ele>72.265738</ele>
        <time>2021-05-07T17:04:17.844Z</time>
      </trkpt>
      <trkpt lat="50.62061" lon="3.56806">
        <ele>72.226044</ele>
        <time>2021-05-07T17:04:22.477Z</time>
      </trkpt>
      <trkpt lat="50.62065" lon="3.5677">
        <ele>72.428776</ele>
        <time>2021-05-07T17:04:27.656Z</time>
      </trkpt>
      <trkpt lat="50.62076" lon="3.56738">
        <ele>72.627579</ele>
        <time>2021-05-07T17:04:32.889Z</time>
      </trkpt>
      <trkpt lat="50.62094" lon="3.56713">
        <ele>72.835857</ele>
        <time>2021-05-07T17:04:38.691Z</time>
      </trkpt>
      <trkpt lat="50.62142" lon="3.56664">
        <ele>73.32856</ele>
        <time>2021-05-07T17:04:52.714Z</time>
      </trkpt>
      <trkpt lat="50.62179" lon="3.56636">
        <ele>73.690096</ele>
        <time>2021-05-07T17:05:03.147Z</time>
      </trkpt>
      <trkpt lat="50.62205" lon="3.56599">
        <ele>73.891456</ele>
        <time>2021-05-07T17:05:11.608Z</time>
      </trkpt>
      <trkpt lat="50.62213" lon="3.56581">
        <ele>73.962962</ele>
        <time>2021-05-07T17:05:15.044Z</time>
      </trkpt>
      <trkpt lat="50.62217" lon="3.56574">
        <ele>73.994639</ele>
        <time>2021-05-07T17:05:16.564Z</time>
      </trkpt>
      <trkpt lat="50.62238" lon="3.56527">
        <ele>74.17832</ele>
        <time>2021-05-07T17:05:24.919Z</time>
      </trkpt>
      <trkpt lat="50.62245" lon="3.56506">
        <ele>74.257691</ele>
        <time>2021-05-07T17:05:28.310Z</time>
      </trkpt>
      <trkpt lat="50.6225" lon="3.56483">
        <ele>74.33441</ele>
        <time>2021-05-07T17:05:31.736Z</time>
      </trkpt>
      <trkpt lat="50.62259" lon="3.56443">
        <ele>74.475295</ele>
        <time>2021-05-07T17:05:37.668Z</time>
      </trkpt>
      <trkpt lat="50.62298" lon="3.56331">
        <ele>74.356089</ele>
        <time>2021-05-07T17:05:53.569Z</time>
      </trkpt>
      <trkpt lat="50.62313" lon="3.5626">
        <ele>74.005729</ele>
        <time>2021-05-07T17:06:01.967Z</time>
      </trkpt>
      <trkpt lat="50.62339" lon="3.56084">
        <ele>73.204328</ele>
        <time>2021-05-07T17:06:21.736Z</time>
      </trkpt>
      <trkpt lat="50.62347" lon="3.56058">
        <ele>73.098023</ele>
        <time>2021-05-07T17:06:24.793Z</time>
      </trkpt>
      <trkpt lat="50.62365" lon="3.56023">
        <ele>72.927526</ele>
        <time>2021-05-07T17:06:30.007Z</time>
      </trkpt>
      <trkpt lat="50.62433" lon="3.55885">
        <ele>72.304743</ele>
        <time>2021-05-07T17:06:50.724Z</time>
      </trkpt>
      <trkpt lat="50.62515" lon="3.55682">
        <ele>73.028925</ele>
        <time>2021-05-07T17:07:24.296Z</time>
      </trkpt>
      <trkpt lat="50.62574" lon="3.55534">
        <ele>74.51816</ele>
        <time>2021-05-07T17:07:52.387Z</time>
      </trkpt>
      <trkpt lat="50.62668" lon="3.5534">
        <ele>77.014012</ele>
        <time>2021-05-07T17:08:35.915Z</time>
      </trkpt>
      <trkpt lat="50.6274" lon="3.55167">
        <ele>79.01538</ele>
        <time>2021-05-07T17:09:10.848Z</time>
      </trkpt>
      <trkpt lat="50.62749" lon="3.55147">
        <ele>79.071756</ele>
        <time>2021-05-07T17:09:14.717Z</time>
      </trkpt>
      <trkpt lat="50.6274" lon="3.55119">
        <ele>79.141672</ele>
        <time>2021-05-07T17:09:19.108Z</time>
      </trkpt>
      <trkpt lat="50.6273" lon="3.55099">
        <ele>79.201714</ele>
        <time>2021-05-07T17:09:23.031Z</time>
      </trkpt>
      <trkpt lat="50.62754" lon="3.55076">
        <ele>79.303818</ele>
        <time>2021-05-07T17:09:29.270Z</time>
      </trkpt>
      <trkpt lat="50.62784" lon="3.55049">
        <ele>79.42956</ele>
        <time>2021-05-07T17:09:36.688Z</time>
      </trkpt>
      <trkpt lat="50.62807" lon="3.55009">
        <ele>79.554074</ele>
        <time>2021-05-07T17:09:43.668Z</time>
      </trkpt>
      <trkpt lat="50.62857" lon="3.54899">
        <ele>78.06558</ele>
        <time>2021-05-07T17:09:58.462Z</time>
      </trkpt>
      <trkpt lat="50.62925" lon="3.54801">
        <ele>75.931532</ele>
        <time>2021-05-07T17:10:12.298Z</time>
      </trkpt>
      <trkpt lat="50.62929" lon="3.54796">
        <ele>75.826021</ele>
        <time>2021-05-07T17:10:12.976Z</time>
      </trkpt>
      <trkpt lat="50.62952" lon="3.54767">
        <ele>74.796455</ele>
        <time>2021-05-07T17:10:17.149Z</time>
      </trkpt>
      <trkpt lat="50.63011" lon="3.54705">
        <ele>71.421828</ele>
        <time>2021-05-07T17:10:26.811Z</time>
      </trkpt>
      <trkpt lat="50.6313" lon="3.54655">
        <ele>65.877537</ele>
        <time>2021-05-07T17:10:43.248Z</time>
      </trkpt>
      <trkpt lat="50.63196" lon="3.5461">
        <ele>63.316085</ele>
        <time>2021-05-07T17:10:53.384Z</time>
      </trkpt>
      <trkpt lat="50.63253" lon="3.5456">
        <ele>60.996278</ele>
        <time>2021-05-07T17:11:03.062Z</time>
      </trkpt>
      <trkpt lat="50.63363" lon="3.5444">
        <ele>59.131385</ele>
        <time>2021-05-07T17:11:25.591Z</time>
      </trkpt>
      <trkpt lat="50.63432" lon="3.54337">
        <ele>58.267114</ele>
        <time>2021-05-07T17:11:43.400Z</time>
      </trkpt>
      <trkpt lat="50.63455" lon="3.54306">
        <ele>58.10418</ele>
        <time>2021-05-07T17:11:49.008Z</time>
      </trkpt>
      <trkpt lat="50.63463" lon="3.54271">
        <ele>57.9804</ele>
        <time>2021-05-07T17:11:53.372Z</time>
      </trkpt>
      <trkpt lat="50.63466" lon="3.5425">
        <ele>57.904983</ele>
        <time>2021-05-07T17:11:55.976Z</time>
      </trkpt>
      <trkpt lat="50.63463" lon="3.54227">
        <ele>57.827318</ele>
        <time>2021-05-07T17:11:58.703Z</time>
      </trkpt>
      <trkpt lat="50.63454" lon="3.54191">
        <ele>57.695219</ele>
        <time>2021-05-07T17:12:03.347Z</time>
      </trkpt>
      <trkpt lat="50.63458" lon="3.54169">
        <ele>57.61975</ele>
        <time>2021-05-07T17:12:05.951Z</time>
      </trkpt>
      <trkpt lat="50.63471" lon="3.5415">
        <ele>57.525511</ele>
        <time>2021-05-07T17:12:09.149Z</time>
      </trkpt>
      <trkpt lat="50.63574" lon="3.54023">
        <ele>56.76493</ele>
        <time>2021-05-07T17:12:33.248Z</time>
      </trkpt>
      <trkpt lat="50.63593" lon="3.53977">
        <ele>56.563933</ele>
        <time>2021-05-07T17:12:39.735Z</time>
      </trkpt>
      <trkpt lat="50.636" lon="3.53954">
        <ele>56.468688</ele>
        <time>2021-05-07T17:12:43.091Z</time>
      </trkpt>
      <trkpt lat="50.63641" lon="3.53862">
        <ele>55.162778</ele>
        <time>2021-05-07T17:12:55.548Z</time>
      </trkpt>
      <trkpt lat="50.63689" lon="3.53787">
        <ele>53.881859</ele>
        <time>2021-05-07T17:13:06.045Z</time>
      </trkpt>
      <trkpt lat="50.63693" lon="3.53782">
        <ele>53.781019</ele>
        <time>2021-05-07T17:13:06.932Z</time>
      </trkpt>
      <trkpt lat="50.63698" lon="3.53769">
        <ele>53.600665</ele>
        <time>2021-05-07T17:13:08.386Z</time>
      </trkpt>
      <trkpt lat="50.637" lon="3.53627">
        <ele>51.486667</ele>
        <time>2021-05-07T17:13:21.311Z</time>
      </trkpt>
      <trkpt lat="50.63703" lon="3.53497">
        <ele>49.345122</ele>
        <time>2021-05-07T17:13:33.571Z</time>
      </trkpt>
      <trkpt lat="50.63705" lon="3.53461">
        <ele>48.748906</ele>
        <time>2021-05-07T17:13:36.955Z</time>
      </trkpt>
      <trkpt lat="50.63687" lon="3.53443">
        <ele>48.385425</ele>
        <time>2021-05-07T17:13:40.630Z</time>
      </trkpt>
      <trkpt lat="50.63563" lon="3.53315">
        <ele>48.939721</ele>
        <time>2021-05-07T17:14:13.572Z</time>
      </trkpt>
      <trkpt lat="50.63501" lon="3.53252">
        <ele>49.731084</ele>
        <time>2021-05-07T17:14:34.113Z</time>
      </trkpt>
      <trkpt lat="50.63432" lon="3.53192">
        <ele>50.873733</ele>
        <time>2021-05-07T17:14:55.087Z</time>
      </trkpt>
      <trkpt lat="50.63421" lon="3.53176">
        <ele>51.089712</ele>
        <time>2021-05-07T17:14:58.896Z</time>
      </trkpt>
      <trkpt lat="50.63395" lon="3.53114">
        <ele>51.731063</ele>
        <time>2021-05-07T17:15:10.420Z</time>
      </trkpt>
      <trkpt lat="50.63339" lon="3.52954">
        <ele>52.974615</ele>
        <time>2021-05-07T17:15:38.177Z</time>
      </trkpt>
      <trkpt lat="50.63322" lon="3.52845">
        <ele>53.784305</ele>
        <time>2021-05-07T17:15:56.256Z</time>
      </trkpt>
      <trkpt lat="50.6331" lon="3.52816">
        <ele>54.085478</ele>
        <time>2021-05-07T17:16:02.194Z</time>
      </trkpt>
      <trkpt lat="50.63295" lon="3.52795">
        <ele>54.358207</ele>
        <time>2021-05-07T17:16:07.312Z</time>
      </trkpt>
      <trkpt lat="50.63132" lon="3.52647">
        <ele>56.977462</ele>
        <time>2021-05-07T17:16:55.608Z</time>
      </trkpt>
      <trkpt lat="50.63113" lon="3.52631">
        <ele>57.280565</ele>
        <time>2021-05-07T17:17:00.868Z</time>
      </trkpt>
      <trkpt lat="50.63044" lon="3.52566">
        <ele>58.444357</ele>
        <time>2021-05-07T17:17:21.347Z</time>
      </trkpt>
      <trkpt lat="50.63051" lon="3.52546">
        <ele>58.683786</ele>
        <time>2021-05-07T17:17:25.310Z</time>
      </trkpt>
      <trkpt lat="50.63054" lon="3.52533">
        <ele>58.929332</ele>
        <time>2021-05-07T17:17:28.300Z</time>
      </trkpt>
      <trkpt lat="50.63071" lon="3.52452">
        <ele>60.435335</ele>
        <time>2021-05-07T17:17:43.448Z</time>
      </trkpt>
      <trkpt lat="50.63087" lon="3.52385">
        <ele>61.68126</ele>
        <time>2021-05-07T17:17:57.460Z</time>
      </trkpt>
      <trkpt lat="50.63081" lon="3.52377">
        <ele>61.909075</ele>
        <time>2021-05-07T17:18:00.638Z</time>
      </trkpt>
      <trkpt lat="50.6305" lon="3.52349">
        <ele>62.884673</ele>
        <time>2021-05-07T17:18:12.862Z</time>
      </trkpt>
      <trkpt lat="50.6304" lon="3.52327">
        <ele>63.380478</ele>
        <time>2021-05-07T17:18:18.743Z</time>
      </trkpt>
      <trkpt lat="50.62992" lon="3.5206">
        <ele>69.78842</ele>
        <time>2021-05-07T17:19:21.259Z</time>
      </trkpt>
      <trkpt lat="50.62994" lon="3.52041">
        <ele>70.240355</ele>
        <time>2021-05-07T17:19:25.460Z</time>
      </trkpt>
      <trkpt lat="50.63002" lon="3.52022">
        <ele>70.683926</ele>
        <time>2021-05-07T17:19:30.365Z</time>
      </trkpt>
      <trkpt lat="50.63173" lon="3.5189">
        <ele>76.586199</ele>
        <time>2021-05-07T17:20:30.413Z</time>
      </trkpt>
      <trkpt lat="50.63236" lon="3.51857">
        <ele>79.029044</ele>
        <time>2021-05-07T17:20:53.421Z</time>
      </trkpt>
      <trkpt lat="50.63242" lon="3.51844">
        <ele>79.394529</ele>
        <time>2021-05-07T17:20:57.208Z</time>
      </trkpt>
      <trkpt lat="50.63236" lon="3.51807">
        <ele>80.291686</ele>
        <time>2021-05-07T17:21:05.593Z</time>
      </trkpt>
      <trkpt lat="50.63217" lon="3.51766">
        <ele>81.463581</ele>
        <time>2021-05-07T17:21:17.249Z</time>
      </trkpt>
      <trkpt lat="50.63212" lon="3.51736">
        <ele>82.178702</ele>
        <time>2021-05-07T17:21:25.417Z</time>
      </trkpt>
      <trkpt lat="50.63209" lon="3.51712">
        <ele>82.473945</ele>
        <time>2021-05-07T17:21:31.255Z</time>
      </trkpt>
      <trkpt lat="50.63214" lon="3.51643">
        <ele>83.223742</ele>
        <time>2021-05-07T17:21:47.442Z</time>
      </trkpt>
      <trkpt lat="50.6322" lon="3.51606">
        <ele>83.63977</ele>
        <time>2021-05-07T17:21:54.925Z</time>
      </trkpt>
      <trkpt lat="50.63237" lon="3.51559">
        <ele>84.217945</ele>
        <time>2021-05-07T17:22:04.672Z</time>
      </trkpt>
      <trkpt lat="50.63248" lon="3.51541">
        <ele>84.483764</ele>
        <time>2021-05-07T17:22:08.929Z</time>
      </trkpt>
      <trkpt lat="50.63264" lon="3.51514">
        <ele>84.882853</ele>
        <time>2021-05-07T17:22:13.405Z</time>
      </trkpt>
      <trkpt lat="50.63275" lon="3.51485">
        <ele>85.245335</ele>
        <time>2021-05-07T17:22:16.913Z</time>
      </trkpt>
      <trkpt lat="50.63296" lon="3.51443">
        <ele>84.184351</ele>
        <time>2021-05-07T17:22:22.005Z</time>
      </trkpt>
      <trkpt lat="50.63304" lon="3.51401">
        <ele>83.225054</ele>
        <time>2021-05-07T17:22:26.020Z</time>
      </trkpt>
      <trkpt lat="50.63328" lon="3.51333">
        <ele>81.537805</ele>
        <time>2021-05-07T17:22:33.001Z</time>
      </trkpt>
      <trkpt lat="50.63344" lon="3.51262">
        <ele>79.869464</ele>
        <time>2021-05-07T17:22:39.510Z</time>
      </trkpt>
      <trkpt lat="50.63358" lon="3.51179">
        <ele>78.499631</ele>
        <time>2021-05-07T17:22:47.240Z</time>
      </trkpt>
      <trkpt lat="50.63363" lon="3.51153">
        <ele>78.186571</ele>
        <time>2021-05-07T17:22:49.646Z</time>
      </trkpt>
      <trkpt lat="50.63358" lon="3.51133">
        <ele>77.928203</ele>
        <time>2021-05-07T17:22:51.965Z</time>
      </trkpt>
      <trkpt lat="50.63344" lon="3.51102">
        <ele>77.481858</ele>
        <time>2021-05-07T17:22:55.547Z</time>
      </trkpt>
      <trkpt lat="50.63353" lon="3.51098">
        <ele>77.312263</ele>
        <time>2021-05-07T17:22:57.206Z</time>
      </trkpt>
      <trkpt lat="50.63372" lon="3.51081">
        <ele>76.898553</ele>
        <time>2021-05-07T17:23:00.796Z</time>
      </trkpt>
      <trkpt lat="50.6345" lon="3.50976">
        <ele>75.765356</ele>
        <time>2021-05-07T17:23:22.443Z</time>
      </trkpt>
      <trkpt lat="50.63458" lon="3.50973">
        <ele>75.763571</ele>
        <time>2021-05-07T17:23:24.016Z</time>
      </trkpt>
      <trkpt lat="50.63454" lon="3.50958">
        <ele>75.761253</ele>
        <time>2021-05-07T17:23:26.399Z</time>
      </trkpt>
      <trkpt lat="50.63454" lon="3.50956">
        <ele>75.760924</ele>
        <time>2021-05-07T17:23:26.785Z</time>
      </trkpt>
      <trkpt lat="50.63449" lon="3.50882">
        <ele>75.749909</ele>
        <time>2021-05-07T17:23:36.881Z</time>
      </trkpt>
      <trkpt lat="50.63436" lon="3.50834">
        <ele>75.742151</ele>
        <time>2021-05-07T17:23:43.935Z</time>
      </trkpt>
      <trkpt lat="50.63425" lon="3.50814">
        <ele>75.73808</ele>
        <time>2021-05-07T17:23:47.674Z</time>
      </trkpt>
      <trkpt lat="50.63369" lon="3.50766">
        <ele>75.119367</ele>
        <time>2021-05-07T17:23:58.704Z</time>
      </trkpt>
      <trkpt lat="50.63302" lon="3.50701">
        <ele>73.956886</ele>
        <time>2021-05-07T17:24:11.502Z</time>
      </trkpt>
      <trkpt lat="50.63325" lon="3.50629">
        <ele>73.199197</ele>
        <time>2021-05-07T17:24:19.531Z</time>
      </trkpt>
      <trkpt lat="50.63347" lon="3.5056">
        <ele>72.557995</ele>
        <time>2021-05-07T17:24:27.311Z</time>
      </trkpt>
      <trkpt lat="50.63387" lon="3.50499">
        <ele>71.847082</ele>
        <time>2021-05-07T17:24:36.196Z</time>
      </trkpt>
      <trkpt lat="50.63395" lon="3.50478">
        <ele>71.646427</ele>
        <time>2021-05-07T17:24:38.758Z</time>
      </trkpt>
      <trkpt lat="50.63402" lon="3.50384">
        <ele>70.880952</ele>
        <time>2021-05-07T17:24:49.663Z</time>
      </trkpt>
      <trkpt lat="50.63413" lon="3.50333">
        <ele>70.726605</ele>
        <time>2021-05-07T17:24:56.765Z</time>
      </trkpt>
      <trkpt lat="50.63421" lon="3.50316">
        <ele>70.702316</ele>
        <time>2021-05-07T17:24:59.780Z</time>
      </trkpt>
      <trkpt lat="50.63484" lon="3.50237">
        <ele>70.5601</ele>
        <time>2021-05-07T17:25:16.303Z</time>
      </trkpt>
      <trkpt lat="50.63552" lon="3.50255">
        <ele>70.305458</ele>
        <time>2021-05-07T17:25:29.420Z</time>
      </trkpt>
      <trkpt lat="50.63568" lon="3.5025">
        <ele>70.005578</ele>
        <time>2021-05-07T17:25:32.497Z</time>
      </trkpt>
      <trkpt lat="50.63579" lon="3.5024">
        <ele>69.778431</ele>
        <time>2021-05-07T17:25:34.594Z</time>
      </trkpt>
      <trkpt lat="50.63579" lon="3.5024">
        <ele>69.778431</ele>
        <time>2021-05-07T17:25:34.597Z</time>
      </trkpt>
      <trkpt lat="50.6359" lon="3.50227">
        <ele>69.5302</ele>
        <time>2021-05-07T17:25:37.092Z</time>
      </trkpt>
      <trkpt lat="50.63641" lon="3.50098">
        <ele>67.780272</ele>
        <time>2021-05-07T17:25:52.374Z</time>
      </trkpt>
      <trkpt lat="50.63674" lon="3.49948">
        <ele>65.029643</ele>
        <time>2021-05-07T17:26:07.187Z</time>
      </trkpt>
      <trkpt lat="50.63681" lon="3.49923">
        <ele>64.477769</ele>
        <time>2021-05-07T17:26:09.673Z</time>
      </trkpt>
      <trkpt lat="50.63713" lon="3.49897">
        <ele>63.340469</ele>
        <time>2021-05-07T17:26:14.927Z</time>
      </trkpt>
      <trkpt lat="50.63847" lon="3.49778">
        <ele>58.397381</ele>
        <time>2021-05-07T17:26:37.199Z</time>
      </trkpt>
      <trkpt lat="50.6389" lon="3.49763">
        <ele>57.002185</ele>
        <time>2021-05-07T17:26:43.600Z</time>
      </trkpt>
      <trkpt lat="50.63933" lon="3.49749">
        <ele>55.606701</ele>
        <time>2021-05-07T17:26:50.110Z</time>
      </trkpt>
      <trkpt lat="50.63937" lon="3.49747">
        <ele>55.49662</ele>
        <time>2021-05-07T17:26:50.721Z</time>
      </trkpt>
      <trkpt lat="50.63964" lon="3.49731">
        <ele>54.782646</ele>
        <time>2021-05-07T17:26:54.951Z</time>
      </trkpt>
      <trkpt lat="50.64045" lon="3.49666">
        <ele>52.484695</ele>
        <time>2021-05-07T17:27:08.577Z</time>
      </trkpt>
      <trkpt lat="50.64095" lon="3.49635">
        <ele>51.155193</ele>
        <time>2021-05-07T17:27:17.105Z</time>
      </trkpt>
      <trkpt lat="50.64143" lon="3.49566">
        <ele>50.735626</ele>
        <time>2021-05-07T17:27:28.155Z</time>
      </trkpt>
      <trkpt lat="50.64142" lon="3.49553">
        <ele>50.682568</ele>
        <time>2021-05-07T17:27:29.469Z</time>
      </trkpt>
      <trkpt lat="50.64118" lon="3.49519">
        <ele>50.470574</ele>
        <time>2021-05-07T17:27:35.542Z</time>
      </trkpt>
      <trkpt lat="50.64061" lon="3.49408">
        <ele>50.152345</ele>
        <time>2021-05-07T17:27:54.059Z</time>
      </trkpt>
      <trkpt lat="50.64044" lon="3.49361">
        <ele>50.430971</ele>
        <time>2021-05-07T17:28:01.630Z</time>
      </trkpt>
      <trkpt lat="50.64036" lon="3.49296">
        <ele>50.775377</ele>
        <time>2021-05-07T17:28:11.728Z</time>
      </trkpt>
      <trkpt lat="50.64017" lon="3.49224">
        <ele>51.181206</ele>
        <time>2021-05-07T17:28:23.629Z</time>
      </trkpt>
      <trkpt lat="50.64026" lon="3.49196">
        <ele>51.345523</ele>
        <time>2021-05-07T17:28:28.528Z</time>
      </trkpt>
      <trkpt lat="50.6414" lon="3.4907">
        <ele>53.214127</ele>
        <time>2021-05-07T17:29:04.875Z</time>
      </trkpt>
      <trkpt lat="50.64169" lon="3.49037">
        <ele>53.725018</ele>
        <time>2021-05-07T17:29:14.451Z</time>
      </trkpt>
      <trkpt lat="50.64174" lon="3.49014">
        <ele>53.941806</ele>
        <time>2021-05-07T17:29:18.445Z</time>
      </trkpt>
      <trkpt lat="50.64148" lon="3.48973">
        <ele>54.337348</ele>
        <time>2021-05-07T17:29:27.844Z</time>
      </trkpt>
      <trkpt lat="50.64143" lon="3.48948">
        <ele>54.50689</ele>
        <time>2021-05-07T17:29:32.006Z</time>
      </trkpt>
      <trkpt lat="50.64166" lon="3.48895">
        <ele>54.928498</ele>
        <time>2021-05-07T17:29:42.228Z</time>
      </trkpt>
      <trkpt lat="50.64241" lon="3.48749">
        <ele>56.202444</ele>
        <time>2021-05-07T17:30:10.086Z</time>
      </trkpt>
      <trkpt lat="50.6429" lon="3.4868">
        <ele>57.004991</ele>
        <time>2021-05-07T17:30:25.581Z</time>
      </trkpt>
      <trkpt lat="50.64459" lon="3.48383">
        <ele>60.900871</ele>
        <time>2021-05-07T17:31:34.051Z</time>
      </trkpt>
      <trkpt lat="50.64492" lon="3.48426">
        <ele>61.421257</ele>
        <time>2021-05-07T17:31:45.677Z</time>
      </trkpt>
      <trkpt lat="50.64459" lon="3.48383">
        <ele>61.858815</ele>
        <time>2021-05-07T17:31:56.847Z</time>
      </trkpt>
      <trkpt lat="50.64388" lon="3.48259">
        <ele>62.946912</ele>
        <time>2021-05-07T17:32:21.668Z</time>
      </trkpt>
      <trkpt lat="50.64331" lon="3.4814">
        <ele>62.688614</ele>
        <time>2021-05-07T17:32:40.910Z</time>
      </trkpt>
      <trkpt lat="50.64268" lon="3.47935">
        <ele>62.222654</ele>
        <time>2021-05-07T17:33:06.445Z</time>
      </trkpt>
      <trkpt lat="50.64194" lon="3.47783">
        <ele>61.772909</ele>
        <time>2021-05-07T17:33:29.724Z</time>
      </trkpt>
      <trkpt lat="50.64144" lon="3.47582">
        <ele>62.43484</ele>
        <time>2021-05-07T17:34:02.076Z</time>
      </trkpt>
      <trkpt lat="50.64088" lon="3.47426">
        <ele>61.883788</ele>
        <time>2021-05-07T17:34:25.423Z</time>
      </trkpt>
      <trkpt lat="50.64087" lon="3.47424">
        <ele>61.864737</ele>
        <time>2021-05-07T17:34:26.123Z</time>
      </trkpt>
      <trkpt lat="50.63999" lon="3.47435">
        <ele>60.916809</ele>
        <time>2021-05-07T17:34:36.299Z</time>
      </trkpt>
      <trkpt lat="50.63873" lon="3.47451">
        <ele>57.583286</ele>
        <time>2021-05-07T17:34:49.301Z</time>
      </trkpt>
      <trkpt lat="50.63837" lon="3.47455">
        <ele>56.535928</ele>
        <time>2021-05-07T17:34:52.942Z</time>
      </trkpt>
      <trkpt lat="50.63834" lon="3.47456">
        <ele>56.454163</ele>
        <time>2021-05-07T17:34:53.225Z</time>
      </trkpt>
      <trkpt lat="50.63567" lon="3.47498">
        <ele>49.284808</ele>
        <time>2021-05-07T17:35:20.980Z</time>
      </trkpt>
      <trkpt lat="50.63544" lon="3.47492">
        <ele>48.856597</ele>
        <time>2021-05-07T17:35:23.471Z</time>
      </trkpt>
      <trkpt lat="50.63361" lon="3.47264">
        <ele>45.593062</ele>
        <time>2021-05-07T17:35:50.939Z</time>
      </trkpt>
      <trkpt lat="50.63333" lon="3.47252">
        <ele>45.28539</ele>
        <time>2021-05-07T17:35:54.745Z</time>
      </trkpt>
      <trkpt lat="50.63155" lon="3.47359">
        <ele>45.120667</ele>
        <time>2021-05-07T17:36:22.238Z</time>
      </trkpt>
      <trkpt lat="50.63104" lon="3.47372">
        <ele>45.747485</ele>
        <time>2021-05-07T17:36:31.728Z</time>
      </trkpt>
      <trkpt lat="50.62972" lon="3.47378">
        <ele>47.664472</ele>
        <time>2021-05-07T17:37:00.413Z</time>
      </trkpt>
      <trkpt lat="50.62937" lon="3.47366">
        <ele>48.299844</ele>
        <time>2021-05-07T17:37:08.909Z</time>
      </trkpt>
      <trkpt lat="50.62912" lon="3.47344">
        <ele>48.820043</ele>
        <time>2021-05-07T17:37:15.668Z</time>
      </trkpt>
      <trkpt lat="50.62837" lon="3.47257">
        <ele>50.523724</ele>
        <time>2021-05-07T17:37:37.201Z</time>
      </trkpt>
      <trkpt lat="50.62606" lon="3.47097">
        <ele>52.244286</ele>
        <time>2021-05-07T17:38:23.885Z</time>
      </trkpt>
      <trkpt lat="50.62553" lon="3.47075">
        <ele>51.719164</ele>
        <time>2021-05-07T17:38:30.616Z</time>
      </trkpt>
      <trkpt lat="50.6252" lon="3.47058">
        <ele>51.382046</ele>
        <time>2021-05-07T17:38:34.613Z</time>
      </trkpt>
      <trkpt lat="50.62395" lon="3.47004">
        <ele>48.530228</ele>
        <time>2021-05-07T17:38:48.331Z</time>
      </trkpt>
      <trkpt lat="50.62389" lon="3.46995">
        <ele>48.293223</ele>
        <time>2021-05-07T17:38:49.163Z</time>
      </trkpt>
      <trkpt lat="50.62367" lon="3.46963">
        <ele>47.45897</ele>
        <time>2021-05-07T17:38:52.186Z</time>
      </trkpt>
      <trkpt lat="50.62296" lon="3.468">
        <ele>43.490238</ele>
        <time>2021-05-07T17:39:04.951Z</time>
      </trkpt>
      <trkpt lat="50.62205" lon="3.46737">
        <ele>40.130621</ele>
        <time>2021-05-07T17:39:14.822Z</time>
      </trkpt>
      <trkpt lat="50.62169" lon="3.46724">
        <ele>38.783298</ele>
        <time>2021-05-07T17:39:18.575Z</time>
      </trkpt>
      <trkpt lat="50.62098" lon="3.46721">
        <ele>36.205436</ele>
        <time>2021-05-07T17:39:25.491Z</time>
      </trkpt>
      <trkpt lat="50.62004" lon="3.46748">
        <ele>32.78494</ele>
        <time>2021-05-07T17:39:34.983Z</time>
      </trkpt>
      <trkpt lat="50.61966" lon="3.46753">
        <ele>31.675671</ele>
        <time>2021-05-07T17:39:38.877Z</time>
      </trkpt>
      <trkpt lat="50.61939" lon="3.46886">
        <ele>29.111165</ele>
        <time>2021-05-07T17:39:48.037Z</time>
      </trkpt>
      <trkpt lat="50.6192" lon="3.46906">
        <ele>28.455142</ele>
        <time>2021-05-07T17:39:50.428Z</time>
      </trkpt>
      <trkpt lat="50.61882" lon="3.46906">
        <ele>27.749905</ele>
        <time>2021-05-07T17:39:54.582Z</time>
      </trkpt>
      <trkpt lat="50.61874" lon="3.46919">
        <ele>27.648545</ele>
        <time>2021-05-07T17:39:55.864Z</time>
      </trkpt>
      <trkpt lat="50.61872" lon="3.4693">
        <ele>27.576155</ele>
        <time>2021-05-07T17:39:56.712Z</time>
      </trkpt>
      <trkpt lat="50.61869" lon="3.46929">
        <ele>27.547347</ele>
        <time>2021-05-07T17:39:57.080Z</time>
      </trkpt>
      <trkpt lat="50.61859" lon="3.46938">
        <ele>27.448067</ele>
        <time>2021-05-07T17:39:58.460Z</time>
      </trkpt>
      <trkpt lat="50.61859" lon="3.46942">
        <ele>27.422133</ele>
        <time>2021-05-07T17:39:58.798Z</time>
      </trkpt>
      <trkpt lat="50.61859" lon="3.46943">
        <ele>27.41274</ele>
        <time>2021-05-07T17:39:58.936Z</time>
      </trkpt>
      <trkpt lat="50.61843" lon="3.46944">
        <ele>27.270944</ele>
        <time>2021-05-07T17:40:00.709Z</time>
      </trkpt>
      <trkpt lat="50.61788" lon="3.46864">
        <ele>26.581877</ele>
        <time>2021-05-07T17:40:10.398Z</time>
      </trkpt>
      <trkpt lat="50.61704" lon="3.4682">
        <ele>26.69665</ele>
        <time>2021-05-07T17:40:24.122Z</time>
      </trkpt>
      <trkpt lat="50.61695" lon="3.46819">
        <ele>26.759859</ele>
        <time>2021-05-07T17:40:25.784Z</time>
      </trkpt>
      <trkpt lat="50.61698" lon="3.46879">
        <ele>27.048885</ele>
        <time>2021-05-07T17:40:33.038Z</time>
      </trkpt>
      <trkpt lat="50.61683" lon="3.46986">
        <ele>27.569509</ele>
        <time>2021-05-07T17:40:46.487Z</time>
      </trkpt>
      <trkpt lat="50.61682" lon="3.47002">
        <ele>27.654628</ele>
        <time>2021-05-07T17:40:48.536Z</time>
      </trkpt>
      <trkpt lat="50.61678" lon="3.47025">
        <ele>27.853495</ele>
        <time>2021-05-07T17:40:51.460Z</time>
      </trkpt>
      <trkpt lat="50.61646" lon="3.47231">
        <ele>29.580266</ele>
        <time>2021-05-07T17:41:18.508Z</time>
      </trkpt>
      <trkpt lat="50.61641" lon="3.47254">
        <ele>29.777339</ele>
        <time>2021-05-07T17:41:21.768Z</time>
      </trkpt>
      <trkpt lat="50.61623" lon="3.47297">
        <ele>30.152659</ele>
        <time>2021-05-07T17:41:28.350Z</time>
      </trkpt>
      <trkpt lat="50.61605" lon="3.47324">
        <ele>30.410669</ele>
        <time>2021-05-07T17:41:33.193Z</time>
      </trkpt>
      <trkpt lat="50.61588" lon="3.47334">
        <ele>30.598958</ele>
        <time>2021-05-07T17:41:36.808Z</time>
      </trkpt>
      <trkpt lat="50.61572" lon="3.47335">
        <ele>30.765884</ele>
        <time>2021-05-07T17:41:39.816Z</time>
      </trkpt>
      <trkpt lat="50.6153" lon="3.47319">
        <ele>31.213949</ele>
        <time>2021-05-07T17:41:47.944Z</time>
      </trkpt>
      <trkpt lat="50.6152" lon="3.4732">
        <ele>31.316276</ele>
        <time>2021-05-07T17:41:49.971Z</time>
      </trkpt>
      <trkpt lat="50.6152" lon="3.47351">
        <ele>31.519598</ele>
        <time>2021-05-07T17:41:53.515Z</time>
      </trkpt>
      <trkpt lat="50.61466" lon="3.47636">
        <ele>32.623097</ele>
        <time>2021-05-07T17:42:26.035Z</time>
      </trkpt>
      <trkpt lat="50.61462" lon="3.47684">
        <ele>32.626418</ele>
        <time>2021-05-07T17:42:30.740Z</time>
      </trkpt>
      <trkpt lat="50.61372" lon="3.47635">
        <ele>31.878873</ele>
        <time>2021-05-07T17:42:44.721Z</time>
      </trkpt>
      <trkpt lat="50.61314" lon="3.47606">
        <ele>31.40343</ele>
        <time>2021-05-07T17:42:51.892Z</time>
      </trkpt>
      <trkpt lat="50.6125" lon="3.47598">
        <ele>28.659419</ele>
        <time>2021-05-07T17:42:58.488Z</time>
      </trkpt>
      <trkpt lat="50.61212" lon="3.47601">
        <ele>26.729003</ele>
        <time>2021-05-07T17:43:02.163Z</time>
      </trkpt>
      <trkpt lat="50.61163" lon="3.47606">
        <ele>24.265284</ele>
        <time>2021-05-07T17:43:06.619Z</time>
      </trkpt>
      <trkpt lat="50.61119" lon="3.47603">
        <ele>21.961773</ele>
        <time>2021-05-07T17:43:10.560Z</time>
      </trkpt>
      <trkpt lat="50.61076" lon="3.47588">
        <ele>18.967832</ele>
        <time>2021-05-07T17:43:14.389Z</time>
      </trkpt>
      <trkpt lat="50.6098" lon="3.47517">
        <ele>11.665622</ele>
        <time>2021-05-07T17:43:23.846Z</time>
      </trkpt>
      <trkpt lat="50.60973" lon="3.47511">
        <ele>11.10444</ele>
        <time>2021-05-07T17:43:24.583Z</time>
      </trkpt>
      <trkpt lat="50.60758" lon="3.47353">
        <ele>4.85744</ele>
        <time>2021-05-07T17:43:49.054Z</time>
      </trkpt>
      <trkpt lat="50.60613" lon="3.47237">
        <ele>7.382672</ele>
        <time>2021-05-07T17:44:29.191Z</time>
      </trkpt>
      <trkpt lat="50.60535" lon="3.47205">
        <ele>10.448706</ele>
        <time>2021-05-07T17:44:53.332Z</time>
      </trkpt>
      <trkpt lat="50.60516" lon="3.47202">
        <ele>11.165129</ele>
        <time>2021-05-07T17:45:00.028Z</time>
      </trkpt>
      <trkpt lat="50.60496" lon="3.47205">
        <ele>11.927618</ele>
        <time>2021-05-07T17:45:05.029Z</time>
      </trkpt>
      <trkpt lat="50.60385" lon="3.47232">
        <ele>16.689014</ele>
        <time>2021-05-07T17:45:43.194Z</time>
      </trkpt>
      <trkpt lat="50.60354" lon="3.47232">
        <ele>18.082892</ele>
        <time>2021-05-07T17:45:53.909Z</time>
      </trkpt>
      <trkpt lat="50.6031" lon="3.47219">
        <ele>20.058462</ele>
        <time>2021-05-07T17:46:06.930Z</time>
      </trkpt>
      <trkpt lat="50.60304" lon="3.47216">
        <ele>20.342415</ele>
        <time>2021-05-07T17:46:09.952Z</time>
      </trkpt>
      <trkpt lat="50.60298" lon="3.47212">
        <ele>20.646992</ele>
        <time>2021-05-07T17:46:12.816Z</time>
      </trkpt>
      <trkpt lat="50.60256" lon="3.47185">
        <ele>22.385382</ele>
        <time>2021-05-07T17:46:26.272Z</time>
      </trkpt>
      <trkpt lat="50.60172" lon="3.47099">
        <ele>25.834934</ele>
        <time>2021-05-07T17:46:58.051Z</time>
      </trkpt>
      <trkpt lat="50.60118" lon="3.47021">
        <ele>28.016496</ele>
        <time>2021-05-07T17:47:14.046Z</time>
      </trkpt>
      <trkpt lat="50.60107" lon="3.47009">
        <ele>28.270189</ele>
        <time>2021-05-07T17:47:16.815Z</time>
      </trkpt>
      <trkpt lat="50.60084" lon="3.46996">
        <ele>28.729073</ele>
        <time>2021-05-07T17:47:21.913Z</time>
      </trkpt>
      <trkpt lat="50.59959" lon="3.47034">
        <ele>31.205717</ele>
        <time>2021-05-07T17:47:50.562Z</time>
      </trkpt>
      <trkpt lat="50.59948" lon="3.47033">
        <ele>31.453219</ele>
        <time>2021-05-07T17:47:53.198Z</time>
      </trkpt>
      <trkpt lat="50.59938" lon="3.47033">
        <ele>31.662821</ele>
        <time>2021-05-07T17:47:55.455Z</time>
      </trkpt>
      <trkpt lat="50.59862" lon="3.46989">
        <ele>33.462121</ele>
        <time>2021-05-07T17:48:14.804Z</time>
      </trkpt>
      <trkpt lat="50.59859" lon="3.46986">
        <ele>33.550741</ele>
        <time>2021-05-07T17:48:15.760Z</time>
      </trkpt>
      <trkpt lat="50.59802" lon="3.4695">
        <ele>34.914325</ele>
        <time>2021-05-07T17:48:30.769Z</time>
      </trkpt>
      <trkpt lat="50.59748" lon="3.46916">
        <ele>35.982628</ele>
        <time>2021-05-07T17:48:44.419Z</time>
      </trkpt>
      <trkpt lat="50.59734" lon="3.46984">
        <ele>36.808662</ele>
        <time>2021-05-07T17:48:57.226Z</time>
      </trkpt>
      <trkpt lat="50.59713" lon="3.4708">
        <ele>37.965431</ele>
        <time>2021-05-07T17:49:14.211Z</time>
      </trkpt>
      <trkpt lat="50.5971" lon="3.47089">
        <ele>38.074079</ele>
        <time>2021-05-07T17:49:15.842Z</time>
      </trkpt>
      <trkpt lat="50.59693" lon="3.47125">
        <ele>38.474295</ele>
        <time>2021-05-07T17:49:23.193Z</time>
      </trkpt>
      <trkpt lat="50.59691" lon="3.47138">
        <ele>38.562203</ele>
        <time>2021-05-07T17:49:25.308Z</time>
      </trkpt>
      <trkpt lat="50.59694" lon="3.47157">
        <ele>38.700938</ele>
        <time>2021-05-07T17:49:28.481Z</time>
      </trkpt>
      <trkpt lat="50.59674" lon="3.47241">
        <ele>39.315486</ele>
        <time>2021-05-07T17:49:42.742Z</time>
      </trkpt>
      <trkpt lat="50.59662" lon="3.47236">
        <ele>39.446673</ele>
        <time>2021-05-07T17:49:45.697Z</time>
      </trkpt>
      <trkpt lat="50.59656" lon="3.47237">
        <ele>39.51596</ele>
        <time>2021-05-07T17:49:47.233Z</time>
      </trkpt>
      <trkpt lat="50.59637" lon="3.47245">
        <ele>39.733041</ele>
        <time>2021-05-07T17:49:52.243Z</time>
      </trkpt>
      <trkpt lat="50.59595" lon="3.47275">
        <ele>40.226685</ele>
        <time>2021-05-07T17:50:03.104Z</time>
      </trkpt>
      <trkpt lat="50.59587" lon="3.47275">
        <ele>40.244172</ele>
        <time>2021-05-07T17:50:04.895Z</time>
      </trkpt>
      <trkpt lat="50.59582" lon="3.47276">
        <ele>40.254193</ele>
        <time>2021-05-07T17:50:06.055Z</time>
      </trkpt>
      <trkpt lat="50.59576" lon="3.47279">
        <ele>40.268718</ele>
        <time>2021-05-07T17:50:07.618Z</time>
      </trkpt>
      <trkpt lat="50.59515" lon="3.47314">
        <ele>40.406233</ele>
        <time>2021-05-07T17:50:21.987Z</time>
      </trkpt>
      <trkpt lat="50.59381" lon="3.47432">
        <ele>40.493137</ele>
        <time>2021-05-07T17:50:52.175Z</time>
      </trkpt>
      <trkpt lat="50.59356" lon="3.47475">
        <ele>40.418275</ele>
        <time>2021-05-07T17:50:59.272Z</time>
      </trkpt>
      <trkpt lat="50.59349" lon="3.47485">
        <ele>40.39852</ele>
        <time>2021-05-07T17:51:00.967Z</time>
      </trkpt>
      <trkpt lat="50.59341" lon="3.47519">
        <ele>40.351435</ele>
        <time>2021-05-07T17:51:05.665Z</time>
      </trkpt>
      <trkpt lat="50.59329" lon="3.47563">
        <ele>40.289865</ele>
        <time>2021-05-07T17:51:11.428Z</time>
      </trkpt>
      <trkpt lat="50.59327" lon="3.47572">
        <ele>40.27713</ele>
        <time>2021-05-07T17:51:12.743Z</time>
      </trkpt>
      <trkpt lat="50.59314" lon="3.47621">
        <ele>40.217725</ele>
        <time>2021-05-07T17:51:19.220Z</time>
      </trkpt>
      <trkpt lat="50.59268" lon="3.47728">
        <ele>40.093573</ele>
        <time>2021-05-07T17:51:35.325Z</time>
      </trkpt>
      <trkpt lat="50.59244" lon="3.47797">
        <ele>40.018378</ele>
        <time>2021-05-07T17:51:45.396Z</time>
      </trkpt>
      <trkpt lat="50.59222" lon="3.47886">
        <ele>40.057121</ele>
        <time>2021-05-07T17:51:57.463Z</time>
      </trkpt>
      <trkpt lat="50.59216" lon="3.4792">
        <ele>40.119087</ele>
        <time>2021-05-07T17:52:01.969Z</time>
      </trkpt>
      <trkpt lat="50.59219" lon="3.47937">
        <ele>40.150332</ele>
        <time>2021-05-07T17:52:04.287Z</time>
      </trkpt>
      <trkpt lat="50.59293" lon="3.48005">
        <ele>40.386188</ele>
        <time>2021-05-07T17:52:22.491Z</time>
      </trkpt>
      <trkpt lat="50.59304" lon="3.48014">
        <ele>40.421151</ele>
        <time>2021-05-07T17:52:25.187Z</time>
      </trkpt>
      <trkpt lat="50.59298" lon="3.48046">
        <ele>40.501351</ele>
        <time>2021-05-07T17:52:30.085Z</time>
      </trkpt>
      <trkpt lat="50.5928" lon="3.481">
        <ele>40.881739</ele>
        <time>2021-05-07T17:52:39.089Z</time>
      </trkpt>
      <trkpt lat="50.59212" lon="3.48207">
        <ele>41.819441</ele>
        <time>2021-05-07T17:53:02.900Z</time>
      </trkpt>
      <trkpt lat="50.5913" lon="3.48318">
        <ele>42.859565</ele>
        <time>2021-05-07T17:53:29.498Z</time>
      </trkpt>
      <trkpt lat="50.59122" lon="3.48337">
        <ele>42.995569</ele>
        <time>2021-05-07T17:53:33.289Z</time>
      </trkpt>
      <trkpt lat="50.5911" lon="3.48351">
        <ele>43.143069</ele>
        <time>2021-05-07T17:53:36.680Z</time>
      </trkpt>
      <trkpt lat="50.59102" lon="3.48367">
        <ele>43.262264</ele>
        <time>2021-05-07T17:53:39.786Z</time>
      </trkpt>
      <trkpt lat="50.59089" lon="3.4842">
        <ele>43.602404</ele>
        <time>2021-05-07T17:53:48.347Z</time>
      </trkpt>
      <trkpt lat="50.59071" lon="3.48457">
        <ele>43.887681</ele>
        <time>2021-05-07T17:53:55.243Z</time>
      </trkpt>
      <trkpt lat="50.59042" lon="3.48498">
        <ele>44.156614</ele>
        <time>2021-05-07T17:54:04.487Z</time>
      </trkpt>
      <trkpt lat="50.59013" lon="3.48538">
        <ele>44.4076</ele>
        <time>2021-05-07T17:54:13.381Z</time>
      </trkpt>
      <trkpt lat="50.58994" lon="3.48564">
        <ele>44.566104</ele>
        <time>2021-05-07T17:54:18.905Z</time>
      </trkpt>
      <trkpt lat="50.5899" lon="3.48557">
        <ele>44.602953</ele>
        <time>2021-05-07T17:54:20.192Z</time>
      </trkpt>
      <trkpt lat="50.58978" lon="3.48539">
        <ele>44.710113</ele>
        <time>2021-05-07T17:54:23.969Z</time>
      </trkpt>
      <trkpt lat="50.58961" lon="3.48531">
        <ele>44.826769</ele>
        <time>2021-05-07T17:54:28.016Z</time>
      </trkpt>
      <trkpt lat="50.58958" lon="3.48534">
        <ele>44.850794</ele>
        <time>2021-05-07T17:54:28.857Z</time>
      </trkpt>
      <trkpt lat="50.58945" lon="3.48533">
        <ele>44.92963</ele>
        <time>2021-05-07T17:54:31.662Z</time>
      </trkpt>
      <trkpt lat="50.58937" lon="3.48532">
        <ele>44.981446</ele>
        <time>2021-05-07T17:54:33.450Z</time>
      </trkpt>
      <trkpt lat="50.5893" lon="3.48536">
        <ele>45.030127</ele>
        <time>2021-05-07T17:54:35.182Z</time>
      </trkpt>
      <trkpt lat="50.58922" lon="3.4853">
        <ele>45.088673</ele>
        <time>2021-05-07T17:54:37.232Z</time>
      </trkpt>
      <trkpt lat="50.58916" lon="3.48523">
        <ele>45.121081</ele>
        <time>2021-05-07T17:54:38.972Z</time>
      </trkpt>
      <trkpt lat="50.58873" lon="3.48478">
        <ele>45.300807</ele>
        <time>2021-05-07T17:54:50.269Z</time>
      </trkpt>
      <trkpt lat="50.58836" lon="3.48438">
        <ele>45.460146</ele>
        <time>2021-05-07T17:54:59.622Z</time>
      </trkpt>
      <trkpt lat="50.58789" lon="3.48343">
        <ele>45.728379</ele>
        <time>2021-05-07T17:55:16.051Z</time>
      </trkpt>
      <trkpt lat="50.58782" lon="3.48329">
        <ele>45.812781</ele>
        <time>2021-05-07T17:55:18.317Z</time>
      </trkpt>
      <trkpt lat="50.58759" lon="3.48356">
        <ele>46.043167</ele>
        <time>2021-05-07T17:55:24.727Z</time>
      </trkpt>
      <trkpt lat="50.58741" lon="3.48376">
        <ele>46.227385</ele>
        <time>2021-05-07T17:55:29.868Z</time>
      </trkpt>
      <trkpt lat="50.58713" lon="3.48408">
        <ele>46.506838</ele>
        <time>2021-05-07T17:55:37.949Z</time>
      </trkpt>
      <trkpt lat="50.58697" lon="3.48427">
        <ele>46.674957</ele>
        <time>2021-05-07T17:55:41.506Z</time>
      </trkpt>
      <trkpt lat="50.58681" lon="3.48437">
        <ele>46.808257</ele>
        <time>2021-05-07T17:55:44.727Z</time>
      </trkpt>
      <trkpt lat="50.5864" lon="3.48445">
        <ele>47.14738</ele>
        <time>2021-05-07T17:55:52.389Z</time>
      </trkpt>
      <trkpt lat="50.58614" lon="3.48436">
        <ele>47.592981</ele>
        <time>2021-05-07T17:55:57.860Z</time>
      </trkpt>
      <trkpt lat="50.58601" lon="3.48423">
        <ele>47.882549</ele>
        <time>2021-05-07T17:56:00.914Z</time>
      </trkpt>
      <trkpt lat="50.58584" lon="3.48411">
        <ele>48.227869</ele>
        <time>2021-05-07T17:56:05.078Z</time>
      </trkpt>
      <trkpt lat="50.58551" lon="3.48362">
        <ele>49.101175</ele>
        <time>2021-05-07T17:56:15.706Z</time>
      </trkpt>
      <trkpt lat="50.58507" lon="3.48302">
        <ele>50.206816</ele>
        <time>2021-05-07T17:56:28.963Z</time>
      </trkpt>
      <trkpt lat="50.58449" lon="3.48233">
        <ele>51.912487</ele>
        <time>2021-05-07T17:56:46.701Z</time>
      </trkpt>
      <trkpt lat="50.58127" lon="3.47871">
        <ele>60.919414</ele>
        <time>2021-05-07T17:58:26.997Z</time>
      </trkpt>
      <trkpt lat="50.5804" lon="3.47776">
        <ele>61.936974</ele>
        <time>2021-05-07T17:58:42.327Z</time>
      </trkpt>
      <trkpt lat="50.5803" lon="3.47763">
        <ele>61.878924</ele>
        <time>2021-05-07T17:58:44.761Z</time>
      </trkpt>
      <trkpt lat="50.58028" lon="3.47758">
        <ele>61.863284</ele>
        <time>2021-05-07T17:58:45.494Z</time>
      </trkpt>
      <trkpt lat="50.58024" lon="3.47748">
        <ele>61.830351</ele>
        <time>2021-05-07T17:58:46.807Z</time>
      </trkpt>
      <trkpt lat="50.58026" lon="3.47736">
        <ele>61.796732</ele>
        <time>2021-05-07T17:58:48.460Z</time>
      </trkpt>
      <trkpt lat="50.58026" lon="3.4772">
        <ele>61.752736</ele>
        <time>2021-05-07T17:58:50.331Z</time>
      </trkpt>
      <trkpt lat="50.58024" lon="3.47708">
        <ele>61.716014</ele>
        <time>2021-05-07T17:58:51.811Z</time>
      </trkpt>
      <trkpt lat="50.58019" lon="3.47696">
        <ele>61.679316</ele>
        <time>2021-05-07T17:58:53.253Z</time>
      </trkpt>
      <trkpt lat="50.5801" lon="3.47682">
        <ele>61.622371</ele>
        <time>2021-05-07T17:58:55.802Z</time>
      </trkpt>
      <trkpt lat="50.57998" lon="3.47674">
        <ele>61.565296</ele>
        <time>2021-05-07T17:58:58.089Z</time>
      </trkpt>
      <trkpt lat="50.57983" lon="3.47675">
        <ele>61.498242</ele>
        <time>2021-05-07T17:59:00.849Z</time>
      </trkpt>
      <trkpt lat="50.57973" lon="3.4768">
        <ele>61.451961</ele>
        <time>2021-05-07T17:59:03.008Z</time>
      </trkpt>
      <trkpt lat="50.57968" lon="3.47685">
        <ele>61.426206</ele>
        <time>2021-05-07T17:59:04.106Z</time>
      </trkpt>
      <trkpt lat="50.57957" lon="3.47706">
        <ele>61.348649</ele>
        <time>2021-05-07T17:59:07.260Z</time>
      </trkpt>
      <trkpt lat="50.57955" lon="3.47715">
        <ele>61.322732</ele>
        <time>2021-05-07T17:59:08.498Z</time>
      </trkpt>
      <trkpt lat="50.57954" lon="3.47727">
        <ele>61.288705</ele>
        <time>2021-05-07T17:59:09.879Z</time>
      </trkpt>
      <trkpt lat="50.57954" lon="3.47739">
        <ele>61.254786</ele>
        <time>2021-05-07T17:59:11.194Z</time>
      </trkpt>
      <trkpt lat="50.57949" lon="3.47749">
        <ele>61.217304</ele>
        <time>2021-05-07T17:59:12.394Z</time>
      </trkpt>
      <trkpt lat="50.57943" lon="3.47756">
        <ele>61.172711</ele>
        <time>2021-05-07T17:59:13.234Z</time>
      </trkpt>
      <trkpt lat="50.57936" lon="3.47761">
        <ele>61.093388</ele>
        <time>2021-05-07T17:59:14.581Z</time>
      </trkpt>
      <trkpt lat="50.57928" lon="3.47761">
        <ele>61.021135</ele>
        <time>2021-05-07T17:59:15.491Z</time>
      </trkpt>
      <trkpt lat="50.57913" lon="3.47742">
        <ele>60.832695</ele>
        <time>2021-05-07T17:59:18.139Z</time>
      </trkpt>
      <trkpt lat="50.57872" lon="3.47658">
        <ele>60.186721</ele>
        <time>2021-05-07T17:59:27.028Z</time>
      </trkpt>
      <trkpt lat="50.57863" lon="3.47642">
        <ele>60.05847</ele>
        <time>2021-05-07T17:59:28.744Z</time>
      </trkpt>
      <trkpt lat="50.57854" lon="3.47627">
        <ele>59.926727</ele>
        <time>2021-05-07T17:59:30.316Z</time>
      </trkpt>
      <trkpt lat="50.57836" lon="3.47606">
        <ele>59.715973</ele>
        <time>2021-05-07T17:59:32.859Z</time>
      </trkpt>
      <trkpt lat="50.57791" lon="3.47551">
        <ele>58.813094</ele>
        <time>2021-05-07T17:59:39.176Z</time>
      </trkpt>
      <trkpt lat="50.57789" lon="3.47548">
        <ele>58.759278</ele>
        <time>2021-05-07T17:59:39.426Z</time>
      </trkpt>
      <trkpt lat="50.57736" lon="3.47488">
        <ele>57.371595</ele>
        <time>2021-05-07T17:59:46.591Z</time>
      </trkpt>
      <trkpt lat="50.57717" lon="3.47464">
        <ele>56.87291</ele>
        <time>2021-05-07T17:59:49.132Z</time>
      </trkpt>
      <trkpt lat="50.57668" lon="3.47411">
        <ele>55.617016</ele>
        <time>2021-05-07T17:59:55.570Z</time>
      </trkpt>
      <trkpt lat="50.57648" lon="3.47439">
        <ele>55.172888</ele>
        <time>2021-05-07T17:59:58.620Z</time>
      </trkpt>
      <trkpt lat="50.57645" lon="3.47441">
        <ele>55.11368</ele>
        <time>2021-05-07T17:59:58.970Z</time>
      </trkpt>
      <trkpt lat="50.57644" lon="3.47442">
        <ele>55.094577</ele>
        <time>2021-05-07T17:59:59.071Z</time>
      </trkpt>
      <trkpt lat="50.57598" lon="3.47361">
        <ele>53.948379</ele>
        <time>2021-05-07T18:00:06.886Z</time>
      </trkpt>
      <trkpt lat="50.5759" lon="3.47357">
        <ele>53.811342</ele>
        <time>2021-05-07T18:00:07.735Z</time>
      </trkpt>
      <trkpt lat="50.57582" lon="3.47353">
        <ele>53.672221</ele>
        <time>2021-05-07T18:00:08.682Z</time>
      </trkpt>
      <trkpt lat="50.57546" lon="3.47344">
        <ele>53.071124</ele>
        <time>2021-05-07T18:00:12.868Z</time>
      </trkpt>
      <trkpt lat="50.57511" lon="3.47335">
        <ele>52.586227</ele>
        <time>2021-05-07T18:00:17.082Z</time>
      </trkpt>
      <trkpt lat="50.57335" lon="3.47291">
        <ele>51.29054</ele>
        <time>2021-05-07T18:00:40.271Z</time>
      </trkpt>
      <trkpt lat="50.57261" lon="3.47281">
        <ele>50.68465</ele>
        <time>2021-05-07T18:00:50.024Z</time>
      </trkpt>
      <trkpt lat="50.57116" lon="3.47292">
        <ele>49.194401</ele>
        <time>2021-05-07T18:01:07.833Z</time>
      </trkpt>
      <trkpt lat="50.57085" lon="3.47298">
        <ele>48.762257</ele>
        <time>2021-05-07T18:01:11.387Z</time>
      </trkpt>
      <trkpt lat="50.57025" lon="3.47325">
        <ele>47.874761</ele>
        <time>2021-05-07T18:01:18.573Z</time>
      </trkpt>
      <trkpt lat="50.57005" lon="3.47326">
        <ele>47.585899</ele>
        <time>2021-05-07T18:01:20.890Z</time>
      </trkpt>
      <trkpt lat="50.56853" lon="3.47325">
        <ele>44.882786</ele>
        <time>2021-05-07T18:01:37.840Z</time>
      </trkpt>
      <trkpt lat="50.56833" lon="3.47327">
        <ele>44.530647</ele>
        <time>2021-05-07T18:01:39.988Z</time>
      </trkpt>
      <trkpt lat="50.56819" lon="3.47331">
        <ele>44.2668</ele>
        <time>2021-05-07T18:01:41.604Z</time>
      </trkpt>
      <trkpt lat="50.568" lon="3.47347">
        <ele>43.873638</ele>
        <time>2021-05-07T18:01:44.039Z</time>
      </trkpt>
      <trkpt lat="50.56787" lon="3.47356">
        <ele>43.623824</ele>
        <time>2021-05-07T18:01:45.585Z</time>
      </trkpt>
      <trkpt lat="50.56774" lon="3.47365">
        <ele>43.35725</ele>
        <time>2021-05-07T18:01:47.155Z</time>
      </trkpt>
      <trkpt lat="50.56717" lon="3.47403">
        <ele>42.224124</ele>
        <time>2021-05-07T18:01:54.073Z</time>
      </trkpt>
      <trkpt lat="50.56705" lon="3.47409">
        <ele>42.004079</ele>
        <time>2021-05-07T18:01:55.357Z</time>
      </trkpt>
      <trkpt lat="50.56701" lon="3.47411">
        <ele>41.919912</ele>
        <time>2021-05-07T18:01:55.864Z</time>
      </trkpt>
      <trkpt lat="50.56697" lon="3.47412">
        <ele>41.839301</ele>
        <time>2021-05-07T18:01:56.316Z</time>
      </trkpt>
      <trkpt lat="50.56648" lon="3.47418">
        <ele>40.94436</ele>
        <time>2021-05-07T18:02:01.971Z</time>
      </trkpt>
      <trkpt lat="50.56641" lon="3.47421">
        <ele>40.812341</ele>
        <time>2021-05-07T18:02:02.763Z</time>
      </trkpt>
      <trkpt lat="50.56634" lon="3.47422">
        <ele>40.719099</ele>
        <time>2021-05-07T18:02:03.427Z</time>
      </trkpt>
      <trkpt lat="50.56619" lon="3.47432">
        <ele>40.465313</ele>
        <time>2021-05-07T18:02:05.411Z</time>
      </trkpt>
      <trkpt lat="50.56576" lon="3.47466">
        <ele>39.757464</ele>
        <time>2021-05-07T18:02:10.882Z</time>
      </trkpt>
      <trkpt lat="50.56562" lon="3.47477">
        <ele>39.513313</ele>
        <time>2021-05-07T18:02:12.657Z</time>
      </trkpt>
      <trkpt lat="50.56483" lon="3.4754">
        <ele>38.203658</ele>
        <time>2021-05-07T18:02:22.924Z</time>
      </trkpt>
      <trkpt lat="50.56432" lon="3.47581">
        <ele>37.691565</ele>
        <time>2021-05-07T18:02:29.921Z</time>
      </trkpt>
      <trkpt lat="50.5639" lon="3.47615">
        <ele>37.298307</ele>
        <time>2021-05-07T18:02:35.963Z</time>
      </trkpt>
      <trkpt lat="50.56326" lon="3.47642">
        <ele>36.749977</ele>
        <time>2021-05-07T18:02:44.398Z</time>
      </trkpt>
      <trkpt lat="50.56298" lon="3.47689">
        <ele>36.476694</ele>
        <time>2021-05-07T18:02:49.634Z</time>
      </trkpt>
      <trkpt lat="50.5624" lon="3.47748">
        <ele>36.067573</ele>
        <time>2021-05-07T18:02:58.847Z</time>
      </trkpt>
      <trkpt lat="50.56236" lon="3.47754">
        <ele>36.037896</ele>
        <time>2021-05-07T18:02:59.489Z</time>
      </trkpt>
      <trkpt lat="50.5623" lon="3.47745">
        <ele>35.984377</ele>
        <time>2021-05-07T18:03:00.706Z</time>
      </trkpt>
      <trkpt lat="50.56193" lon="3.47696">
        <ele>35.703618</ele>
        <time>2021-05-07T18:03:07.179Z</time>
      </trkpt>
      <trkpt lat="50.56187" lon="3.47692">
        <ele>35.661265</ele>
        <time>2021-05-07T18:03:08.051Z</time>
      </trkpt>
      <trkpt lat="50.56158" lon="3.47679">
        <ele>35.431162</ele>
        <time>2021-05-07T18:03:11.941Z</time>
      </trkpt>
      <trkpt lat="50.5615" lon="3.4768">
        <ele>35.364393</ele>
        <time>2021-05-07T18:03:12.803Z</time>
      </trkpt>
      <trkpt lat="50.56142" lon="3.47684">
        <ele>35.285196</ele>
        <time>2021-05-07T18:03:13.822Z</time>
      </trkpt>
      <trkpt lat="50.56138" lon="3.47691">
        <ele>35.230049</ele>
        <time>2021-05-07T18:03:14.600Z</time>
      </trkpt>
      <trkpt lat="50.56104" lon="3.47783">
        <ele>34.604747</ele>
        <time>2021-05-07T18:03:23.004Z</time>
      </trkpt>
      <trkpt lat="50.56092" lon="3.47804">
        <ele>34.438762</ele>
        <time>2021-05-07T18:03:25.317Z</time>
      </trkpt>
      <trkpt lat="50.56079" lon="3.47789">
        <ele>34.296282</ele>
        <time>2021-05-07T18:03:27.111Z</time>
      </trkpt>
      <trkpt lat="50.56024" lon="3.47769">
        <ele>33.812023</ele>
        <time>2021-05-07T18:03:33.770Z</time>
      </trkpt>
      <trkpt lat="50.5592" lon="3.47766">
        <ele>33.116463</ele>
        <time>2021-05-07T18:03:46.630Z</time>
      </trkpt>
      <trkpt lat="50.55915" lon="3.47765">
        <ele>33.079051</ele>
        <time>2021-05-07T18:03:47.347Z</time>
      </trkpt>
      <trkpt lat="50.55911" lon="3.47761">
        <ele>33.047982</ele>
        <time>2021-05-07T18:03:47.972Z</time>
      </trkpt>
      <trkpt lat="50.55907" lon="3.47755">
        <ele>33.013129</ele>
        <time>2021-05-07T18:03:48.863Z</time>
      </trkpt>
      <trkpt lat="50.55894" lon="3.4773">
        <ele>32.877873</ele>
        <time>2021-05-07T18:03:52.130Z</time>
      </trkpt>
      <trkpt lat="50.55879" lon="3.47699">
        <ele>32.713576</ele>
        <time>2021-05-07T18:03:55.688Z</time>
      </trkpt>
      <trkpt lat="50.55867" lon="3.47685">
        <ele>32.700706</ele>
        <time>2021-05-07T18:03:58.050Z</time>
      </trkpt>
      <trkpt lat="50.55848" lon="3.47676">
        <ele>32.688515</ele>
        <time>2021-05-07T18:04:00.980Z</time>
      </trkpt>
      <trkpt lat="50.55831" lon="3.47675">
        <ele>32.677738</ele>
        <time>2021-05-07T18:04:03.694Z</time>
      </trkpt>
      <trkpt lat="50.55776" lon="3.47674">
        <ele>32.643934</ele>
        <time>2021-05-07T18:04:11.707Z</time>
      </trkpt>
      <trkpt lat="50.55759" lon="3.47674">
        <ele>32.633652</ele>
        <time>2021-05-07T18:04:14.384Z</time>
      </trkpt>
      <trkpt lat="50.55752" lon="3.47676">
        <ele>32.629529</ele>
        <time>2021-05-07T18:04:15.429Z</time>
      </trkpt>
      <trkpt lat="50.55747" lon="3.47679">
        <ele>32.625782</ele>
        <time>2021-05-07T18:04:16.437Z</time>
      </trkpt>
      <trkpt lat="50.55744" lon="3.47681">
        <ele>32.623983</ele>
        <time>2021-05-07T18:04:16.761Z</time>
      </trkpt>
      <trkpt lat="50.55728" lon="3.47699">
        <ele>32.611956</ele>
        <time>2021-05-07T18:04:19.908Z</time>
      </trkpt>
      <trkpt lat="50.55701" lon="3.47748">
        <ele>32.362978</ele>
        <time>2021-05-07T18:04:25.735Z</time>
      </trkpt>
      <trkpt lat="50.55681" lon="3.4776">
        <ele>32.107732</ele>
        <time>2021-05-07T18:04:28.459Z</time>
      </trkpt>
      <trkpt lat="50.55658" lon="3.47761">
        <ele>31.839253</ele>
        <time>2021-05-07T18:04:31.299Z</time>
      </trkpt>
      <trkpt lat="50.55636" lon="3.47763">
        <ele>31.584346</ele>
        <time>2021-05-07T18:04:33.810Z</time>
      </trkpt>
      <trkpt lat="50.55568" lon="3.47794">
        <ele>30.74826</ele>
        <time>2021-05-07T18:04:41.928Z</time>
      </trkpt>
      <trkpt lat="50.55556" lon="3.47802">
        <ele>30.594636</ele>
        <time>2021-05-07T18:04:43.423Z</time>
      </trkpt>
      <trkpt lat="50.55546" lon="3.47808">
        <ele>30.468804</ele>
        <time>2021-05-07T18:04:44.596Z</time>
      </trkpt>
      <trkpt lat="50.55426" lon="3.47881">
        <ele>28.816781</ele>
        <time>2021-05-07T18:04:59.398Z</time>
      </trkpt>
      <trkpt lat="50.55261" lon="3.47984">
        <ele>27.115987</ele>
        <time>2021-05-07T18:05:21.427Z</time>
      </trkpt>
      <trkpt lat="50.5521" lon="3.48008">
        <ele>26.674973</ele>
        <time>2021-05-07T18:05:28.445Z</time>
      </trkpt>
      <trkpt lat="50.55205" lon="3.4802">
        <ele>26.632621</ele>
        <time>2021-05-07T18:05:29.634Z</time>
      </trkpt>
      <trkpt lat="50.55201" lon="3.48028">
        <ele>26.603618</ele>
        <time>2021-05-07T18:05:30.452Z</time>
      </trkpt>
      <trkpt lat="50.55199" lon="3.4802">
        <ele>26.578779</ele>
        <time>2021-05-07T18:05:31.353Z</time>
      </trkpt>
      <trkpt lat="50.55022" lon="3.47297">
        <ele>24.348981</ele>
        <time>2021-05-07T18:07:03.731Z</time>
      </trkpt>
      <trkpt lat="50.55009" lon="3.47249">
        <ele>24.214934</ele>
        <time>2021-05-07T18:07:10.088Z</time>
      </trkpt>
      <trkpt lat="50.54994" lon="3.47188">
        <ele>24.055566</ele>
        <time>2021-05-07T18:07:18.106Z</time>
      </trkpt>
      <trkpt lat="50.54832" lon="3.46526">
        <ele>22.662031</ele>
        <time>2021-05-07T18:08:43.353Z</time>
      </trkpt>
      <trkpt lat="50.5482" lon="3.46483">
        <ele>22.619449</ele>
        <time>2021-05-07T18:08:49.786Z</time>
      </trkpt>
      <trkpt lat="50.54814" lon="3.46462">
        <ele>22.631864</ele>
        <time>2021-05-07T18:08:52.956Z</time>
      </trkpt>
      <trkpt lat="50.54767" lon="3.46264">
        <ele>23.270052</ele>
        <time>2021-05-07T18:09:24.590Z</time>
      </trkpt>
      <trkpt lat="50.54762" lon="3.4624">
        <ele>23.348138</ele>
        <time>2021-05-07T18:09:27.994Z</time>
      </trkpt>
      <trkpt lat="50.54755" lon="3.46215">
        <ele>23.430329</ele>
        <time>2021-05-07T18:09:31.975Z</time>
      </trkpt>
      <trkpt lat="50.5458" lon="3.45499">
        <ele>20.970479</ele>
        <time>2021-05-07T18:11:02.117Z</time>
      </trkpt>
      <trkpt lat="50.54574" lon="3.45481">
        <ele>20.885131</ele>
        <time>2021-05-07T18:11:04.417Z</time>
      </trkpt>
      <trkpt lat="50.54568" lon="3.45465">
        <ele>20.811734</ele>
        <time>2021-05-07T18:11:06.368Z</time>
      </trkpt>
      <trkpt lat="50.54452" lon="3.44978">
        <ele>18.821683</ele>
        <time>2021-05-07T18:12:06.155Z</time>
      </trkpt>
      <trkpt lat="50.54443" lon="3.44924">
        <ele>18.674875</ele>
        <time>2021-05-07T18:12:13.213Z</time>
      </trkpt>
      <trkpt lat="50.54435" lon="3.44807">
        <ele>18.46239</ele>
        <time>2021-05-07T18:12:28.897Z</time>
      </trkpt>
      <trkpt lat="50.54433" lon="3.44779">
        <ele>18.426447</ele>
        <time>2021-05-07T18:12:32.629Z</time>
      </trkpt>
      <trkpt lat="50.54438" lon="3.44687">
        <ele>18.309647</ele>
        <time>2021-05-07T18:12:44.061Z</time>
      </trkpt>
      <trkpt lat="50.54443" lon="3.44602">
        <ele>18.20237</ele>
        <time>2021-05-07T18:12:54.277Z</time>
      </trkpt>
      <trkpt lat="50.54444" lon="3.44586">
        <ele>18.140286</ele>
        <time>2021-05-07T18:12:56.173Z</time>
      </trkpt>
      <trkpt lat="50.54433" lon="3.44583">
        <ele>18.047023</ele>
        <time>2021-05-07T18:12:57.757Z</time>
      </trkpt>
      <trkpt lat="50.54423" lon="3.4458">
        <ele>17.969551</ele>
        <time>2021-05-07T18:12:59.049Z</time>
      </trkpt>
      <trkpt lat="50.54414" lon="3.4458">
        <ele>17.901968</ele>
        <time>2021-05-07T18:13:00.189Z</time>
      </trkpt>
      <trkpt lat="50.54403" lon="3.4458">
        <ele>17.819098</ele>
        <time>2021-05-07T18:13:01.567Z</time>
      </trkpt>
      <trkpt lat="50.54389" lon="3.44586">
        <ele>17.711597</ele>
        <time>2021-05-07T18:13:03.215Z</time>
      </trkpt>
      <trkpt lat="50.54333" lon="3.44658">
        <ele>17.152897</ele>
        <time>2021-05-07T18:13:12.034Z</time>
      </trkpt>
      <trkpt lat="50.54288" lon="3.44721">
        <ele>16.839986</ele>
        <time>2021-05-07T18:13:19.626Z</time>
      </trkpt>
      <trkpt lat="50.5428" lon="3.44728">
        <ele>16.853354</ele>
        <time>2021-05-07T18:13:20.855Z</time>
      </trkpt>
      <trkpt lat="50.54262" lon="3.44741">
        <ele>16.882797</ele>
        <time>2021-05-07T18:13:24.117Z</time>
      </trkpt>
      <trkpt lat="50.54249" lon="3.44741">
        <ele>16.90182</ele>
        <time>2021-05-07T18:13:26.247Z</time>
      </trkpt>
      <trkpt lat="50.54222" lon="3.44731">
        <ele>16.942199</ele>
        <time>2021-05-07T18:13:30.541Z</time>
      </trkpt>
      <trkpt lat="50.54217" lon="3.4473">
        <ele>16.949864</ele>
        <time>2021-05-07T18:13:31.508Z</time>
      </trkpt>
      <trkpt lat="50.54192" lon="3.4472">
        <ele>16.98741</ele>
        <time>2021-05-07T18:13:35.489Z</time>
      </trkpt>
      <trkpt lat="50.54179" lon="3.44715">
        <ele>17.007073</ele>
        <time>2021-05-07T18:13:37.658Z</time>
      </trkpt>
      <trkpt lat="50.5417" lon="3.44711">
        <ele>17.02096</ele>
        <time>2021-05-07T18:13:39.035Z</time>
      </trkpt>
      <trkpt lat="50.5416" lon="3.44707">
        <ele>17.035436</ele>
        <time>2021-05-07T18:13:40.707Z</time>
      </trkpt>
      <trkpt lat="50.54141" lon="3.447">
        <ele>17.064176</ele>
        <time>2021-05-07T18:13:43.904Z</time>
      </trkpt>
      <trkpt lat="50.54138" lon="3.44698">
        <ele>17.069009</ele>
        <time>2021-05-07T18:13:44.427Z</time>
      </trkpt>
      <trkpt lat="50.54123" lon="3.44691">
        <ele>17.125854</ele>
        <time>2021-05-07T18:13:47.077Z</time>
      </trkpt>
      <trkpt lat="50.54118" lon="3.44689">
        <ele>17.154536</ele>
        <time>2021-05-07T18:13:47.820Z</time>
      </trkpt>
      <trkpt lat="50.54114" lon="3.44687">
        <ele>17.182567</ele>
        <time>2021-05-07T18:13:48.816Z</time>
      </trkpt>
      <trkpt lat="50.5411" lon="3.44686">
        <ele>17.205031</ele>
        <time>2021-05-07T18:13:49.571Z</time>
      </trkpt>
      <trkpt lat="50.54107" lon="3.44685">
        <ele>17.223951</ele>
        <time>2021-05-07T18:13:50.147Z</time>
      </trkpt>
      <trkpt lat="50.54093" lon="3.44757">
        <ele>17.500619</ele>
        <time>2021-05-07T18:13:58.898Z</time>
      </trkpt>
      <trkpt lat="50.54084" lon="3.44813">
        <ele>17.710057</ele>
        <time>2021-05-07T18:14:05.539Z</time>
      </trkpt>
      <trkpt lat="50.54084" lon="3.44834">
        <ele>17.788271</ele>
        <time>2021-05-07T18:14:07.973Z</time>
      </trkpt>
      <trkpt lat="50.54083" lon="3.44841">
        <ele>17.815912</ele>
        <time>2021-05-07T18:14:08.877Z</time>
      </trkpt>
      <trkpt lat="50.54079" lon="3.44862">
        <ele>17.896422</ele>
        <time>2021-05-07T18:14:11.324Z</time>
      </trkpt>
      <trkpt lat="50.5404" lon="3.45071">
        <ele>18.344778</ele>
        <time>2021-05-07T18:14:32.586Z</time>
      </trkpt>
      <trkpt lat="50.54021" lon="3.45177">
        <ele>18.503334</ele>
        <time>2021-05-07T18:14:43.866Z</time>
      </trkpt>
      <trkpt lat="50.53949" lon="3.45679">
        <ele>19.380167</ele>
        <time>2021-05-07T18:15:36.239Z</time>
      </trkpt>
      <trkpt lat="50.5388" lon="3.46164">
        <ele>20.571144</ele>
        <time>2021-05-07T18:16:25.757Z</time>
      </trkpt>
      <trkpt lat="50.53878" lon="3.46181">
        <ele>20.653026</ele>
        <time>2021-05-07T18:16:27.985Z</time>
      </trkpt>
      <trkpt lat="50.53858" lon="3.46237">
        <ele>20.945009</ele>
        <time>2021-05-07T18:16:35.660Z</time>
      </trkpt>
      <trkpt lat="50.53856" lon="3.46244">
        <ele>20.980154</ele>
        <time>2021-05-07T18:16:36.668Z</time>
      </trkpt>
      <trkpt lat="50.53844" lon="3.46263">
        <ele>21.106426</ele>
        <time>2021-05-07T18:16:40.031Z</time>
      </trkpt>
      <trkpt lat="50.53812" lon="3.46292">
        <ele>21.545158</ele>
        <time>2021-05-07T18:16:47.607Z</time>
      </trkpt>
      <trkpt lat="50.53712" lon="3.46368">
        <ele>23.179294</ele>
        <time>2021-05-07T18:17:12.150Z</time>
      </trkpt>
      <trkpt lat="50.53601" lon="3.4645">
        <ele>24.208425</ele>
        <time>2021-05-07T18:17:35.438Z</time>
      </trkpt>
      <trkpt lat="50.5341" lon="3.46593">
        <ele>25.289769</ele>
        <time>2021-05-07T18:18:06.771Z</time>
      </trkpt>
      <trkpt lat="50.53356" lon="3.46634">
        <ele>25.611446</ele>
        <time>2021-05-07T18:18:18.044Z</time>
      </trkpt>
      <trkpt lat="50.53267" lon="3.46704">
        <ele>27.017022</ele>
        <time>2021-05-07T18:18:40.362Z</time>
      </trkpt>
      <trkpt lat="50.532" lon="3.46759">
        <ele>28.157381</ele>
        <time>2021-05-07T18:18:56.822Z</time>
      </trkpt>
      <trkpt lat="50.53195" lon="3.46763">
        <ele>28.239441</ele>
        <time>2021-05-07T18:18:58.847Z</time>
      </trkpt>
      <trkpt lat="50.53175" lon="3.46773">
        <ele>28.357022</ele>
        <time>2021-05-07T18:19:02.112Z</time>
      </trkpt>
      <trkpt lat="50.53025" lon="3.46829">
        <ele>27.977204</ele>
        <time>2021-05-07T18:19:23.256Z</time>
      </trkpt>
      <trkpt lat="50.53018" lon="3.46828">
        <ele>27.960369</ele>
        <time>2021-05-07T18:19:23.971Z</time>
      </trkpt>
      <trkpt lat="50.53012" lon="3.46822">
        <ele>27.939615</ele>
        <time>2021-05-07T18:19:24.881Z</time>
      </trkpt>
      <trkpt lat="50.53008" lon="3.46817">
        <ele>27.880491</ele>
        <time>2021-05-07T18:19:25.444Z</time>
      </trkpt>
      <trkpt lat="50.53003" lon="3.46805">
        <ele>27.768841</ele>
        <time>2021-05-07T18:19:26.524Z</time>
      </trkpt>
      <trkpt lat="50.52951" lon="3.46484">
        <ele>25.081117</ele>
        <time>2021-05-07T18:19:51.312Z</time>
      </trkpt>
      <trkpt lat="50.52939" lon="3.46351">
        <ele>23.917021</ele>
        <time>2021-05-07T18:20:01.230Z</time>
      </trkpt>
      <trkpt lat="50.52899" lon="3.46191">
        <ele>22.684001</ele>
        <time>2021-05-07T18:20:14.094Z</time>
      </trkpt>
      <trkpt lat="50.52802" lon="3.4571">
        <ele>20.19047</ele>
        <time>2021-05-07T18:20:55.435Z</time>
      </trkpt>
      <trkpt lat="50.52769" lon="3.45601">
        <ele>19.606837</ele>
        <time>2021-05-07T18:21:05.346Z</time>
      </trkpt>
      <trkpt lat="50.52758" lon="3.45546">
        <ele>19.330683</ele>
        <time>2021-05-07T18:21:09.983Z</time>
      </trkpt>
      <trkpt lat="50.52741" lon="3.45438">
        <ele>18.77926</ele>
        <time>2021-05-07T18:21:18.727Z</time>
      </trkpt>
      <trkpt lat="50.52726" lon="3.45386">
        <ele>18.480653</ele>
        <time>2021-05-07T18:21:23.178Z</time>
      </trkpt>
      <trkpt lat="50.52719" lon="3.45338">
        <ele>18.222885</ele>
        <time>2021-05-07T18:21:27.078Z</time>
      </trkpt>
      <trkpt lat="50.52707" lon="3.45261">
        <ele>17.81135</ele>
        <time>2021-05-07T18:21:33.362Z</time>
      </trkpt>
      <trkpt lat="50.52698" lon="3.45225">
        <ele>17.61163</ele>
        <time>2021-05-07T18:21:36.517Z</time>
      </trkpt>
      <trkpt lat="50.52695" lon="3.45217">
        <ele>17.559231</ele>
        <time>2021-05-07T18:21:37.309Z</time>
      </trkpt>
      <trkpt lat="50.52608" lon="3.45115">
        <ele>17.226667</ele>
        <time>2021-05-07T18:21:52.217Z</time>
      </trkpt>
      <trkpt lat="50.52594" lon="3.45088">
        <ele>17.166854</ele>
        <time>2021-05-07T18:21:55.446Z</time>
      </trkpt>
      <trkpt lat="50.52569" lon="3.45007">
        <ele>17.011169</ele>
        <time>2021-05-07T18:22:03.669Z</time>
      </trkpt>
      <trkpt lat="50.52556" lon="3.44992">
        <ele>16.983988</ele>
        <time>2021-05-07T18:22:06.227Z</time>
      </trkpt>
      <trkpt lat="50.52496" lon="3.44968">
        <ele>16.883529</ele>
        <time>2021-05-07T18:22:14.911Z</time>
      </trkpt>
      <trkpt lat="50.52465" lon="3.44966">
        <ele>16.832304</ele>
        <time>2021-05-07T18:22:19.325Z</time>
      </trkpt>
      <trkpt lat="50.52397" lon="3.4497">
        <ele>16.721427</ele>
        <time>2021-05-07T18:22:28.884Z</time>
      </trkpt>
      <trkpt lat="50.52364" lon="3.44971">
        <ele>16.713226</ele>
        <time>2021-05-07T18:22:33.504Z</time>
      </trkpt>
      <trkpt lat="50.52354" lon="3.44967">
        <ele>16.711433</ele>
        <time>2021-05-07T18:22:34.947Z</time>
      </trkpt>
      <trkpt lat="50.52348" lon="3.44962">
        <ele>16.710138</ele>
        <time>2021-05-07T18:22:36.018Z</time>
      </trkpt>
      <trkpt lat="50.52311" lon="3.44887">
        <ele>16.699453</ele>
        <time>2021-05-07T18:22:44.839Z</time>
      </trkpt>
      <trkpt lat="50.52281" lon="3.44844">
        <ele>16.69231</ele>
        <time>2021-05-07T18:22:50.953Z</time>
      </trkpt>
      <trkpt lat="50.52251" lon="3.448">
        <ele>16.689678</ele>
        <time>2021-05-07T18:22:57.355Z</time>
      </trkpt>
      <trkpt lat="50.52222" lon="3.44745">
        <ele>16.701542</ele>
        <time>2021-05-07T18:23:04.383Z</time>
      </trkpt>
      <trkpt lat="50.52189" lon="3.44712">
        <ele>16.711839</ele>
        <time>2021-05-07T18:23:10.545Z</time>
      </trkpt>
      <trkpt lat="50.52154" lon="3.44675">
        <ele>16.722702</ele>
        <time>2021-05-07T18:23:16.760Z</time>
      </trkpt>
      <trkpt lat="50.52143" lon="3.44666">
        <ele>16.726011</ele>
        <time>2021-05-07T18:23:18.657Z</time>
      </trkpt>
      <trkpt lat="50.52116" lon="3.44669">
        <ele>16.732927</ele>
        <time>2021-05-07T18:23:22.399Z</time>
      </trkpt>
      <trkpt lat="50.52105" lon="3.44679">
        <ele>16.691137</ele>
        <time>2021-05-07T18:23:24.292Z</time>
      </trkpt>
      <trkpt lat="50.52092" lon="3.44691">
        <ele>16.627903</ele>
        <time>2021-05-07T18:23:26.337Z</time>
      </trkpt>
      <trkpt lat="50.52089" lon="3.44693">
        <ele>16.616722</ele>
        <time>2021-05-07T18:23:26.718Z</time>
      </trkpt>
      <trkpt lat="50.52072" lon="3.44707">
        <ele>16.534047</ele>
        <time>2021-05-07T18:23:29.497Z</time>
      </trkpt>
      <trkpt lat="50.52034" lon="3.44722">
        <ele>16.369688</ele>
        <time>2021-05-07T18:23:34.684Z</time>
      </trkpt>
      <trkpt lat="50.52029" lon="3.44725">
        <ele>16.348995</ele>
        <time>2021-05-07T18:23:35.245Z</time>
      </trkpt>
      <trkpt lat="50.51991" lon="3.44724">
        <ele>16.188811</ele>
        <time>2021-05-07T18:23:40.286Z</time>
      </trkpt>
      <trkpt lat="50.51953" lon="3.44702">
        <ele>16.016816</ele>
        <time>2021-05-07T18:23:45.673Z</time>
      </trkpt>
      <trkpt lat="50.51933" lon="3.44684">
        <ele>15.957952</ele>
        <time>2021-05-07T18:23:48.833Z</time>
      </trkpt>
      <trkpt lat="50.51925" lon="3.44675">
        <ele>15.942733</ele>
        <time>2021-05-07T18:23:50.054Z</time>
      </trkpt>
      <trkpt lat="50.5192" lon="3.44671">
        <ele>15.934097</ele>
        <time>2021-05-07T18:23:50.804Z</time>
      </trkpt>
      <trkpt lat="50.51845" lon="3.44602">
        <ele>15.804491</ele>
        <time>2021-05-07T18:24:02.931Z</time>
      </trkpt>
      <trkpt lat="50.51818" lon="3.44585">
        <ele>15.761895</ele>
        <time>2021-05-07T18:24:07.112Z</time>
      </trkpt>
      <trkpt lat="50.51727" lon="3.44527">
        <ele>15.972654</ele>
        <time>2021-05-07T18:24:23.043Z</time>
      </trkpt>
      <trkpt lat="50.51714" lon="3.44519">
        <ele>16.028972</ele>
        <time>2021-05-07T18:24:25.421Z</time>
      </trkpt>
      <trkpt lat="50.51599" lon="3.44445">
        <ele>16.470806</ele>
        <time>2021-05-07T18:24:46.450Z</time>
      </trkpt>
      <trkpt lat="50.51573" lon="3.44428">
        <ele>16.485061</ele>
        <time>2021-05-07T18:24:51.070Z</time>
      </trkpt>
      <trkpt lat="50.5139" lon="3.44363">
        <ele>16.363578</ele>
        <time>2021-05-07T18:25:18.124Z</time>
      </trkpt>
      <trkpt lat="50.51346" lon="3.4435">
        <ele>16.217905</ele>
        <time>2021-05-07T18:25:24.190Z</time>
      </trkpt>
      <trkpt lat="50.5134" lon="3.44349">
        <ele>16.19929</ele>
        <time>2021-05-07T18:25:24.957Z</time>
      </trkpt>
      <trkpt lat="50.51322" lon="3.4435">
        <ele>16.138671</ele>
        <time>2021-05-07T18:25:27.387Z</time>
      </trkpt>
      <trkpt lat="50.5119" lon="3.44403">
        <ele>15.731227</ele>
        <time>2021-05-07T18:25:45.576Z</time>
      </trkpt>
      <trkpt lat="50.51187" lon="3.44406">
        <ele>15.718854</ele>
        <time>2021-05-07T18:25:46.123Z</time>
      </trkpt>
      <trkpt lat="50.51116" lon="3.44468">
        <ele>15.488906</ele>
        <time>2021-05-07T18:25:57.515Z</time>
      </trkpt>
      <trkpt lat="50.51095" lon="3.44486">
        <ele>15.458529</ele>
        <time>2021-05-07T18:26:00.921Z</time>
      </trkpt>
      <trkpt lat="50.50707" lon="3.44823">
        <ele>15.729091</ele>
        <time>2021-05-07T18:27:08.050Z</time>
      </trkpt>
      <trkpt lat="50.50673" lon="3.44871">
        <ele>15.773643</ele>
        <time>2021-05-07T18:27:15.037Z</time>
      </trkpt>
      <trkpt lat="50.50661" lon="3.44894">
        <ele>15.792573</ele>
        <time>2021-05-07T18:27:17.867Z</time>
      </trkpt>
      <trkpt lat="50.50652" lon="3.44916">
        <ele>15.808727</ele>
        <time>2021-05-07T18:27:20.529Z</time>
      </trkpt>
      <trkpt lat="50.50599" lon="3.45026">
        <ele>16.051706</ele>
        <time>2021-05-07T18:27:33.828Z</time>
      </trkpt>
      <trkpt lat="50.50551" lon="3.45111">
        <ele>16.258812</ele>
        <time>2021-05-07T18:27:45.598Z</time>
      </trkpt>
      <trkpt lat="50.50539" lon="3.45133">
        <ele>16.310508</ele>
        <time>2021-05-07T18:27:48.611Z</time>
      </trkpt>
      <trkpt lat="50.50531" lon="3.45152">
        <ele>16.404448</ele>
        <time>2021-05-07T18:27:51.375Z</time>
      </trkpt>
      <trkpt lat="50.50513" lon="3.45201">
        <ele>16.702227</ele>
        <time>2021-05-07T18:27:57.823Z</time>
      </trkpt>
      <trkpt lat="50.50477" lon="3.45312">
        <ele>17.356333</ele>
        <time>2021-05-07T18:28:12.224Z</time>
      </trkpt>
      <trkpt lat="50.50473" lon="3.45332">
        <ele>17.46996</ele>
        <time>2021-05-07T18:28:14.654Z</time>
      </trkpt>
      <trkpt lat="50.50471" lon="3.45343">
        <ele>17.526179</ele>
        <time>2021-05-07T18:28:16.019Z</time>
      </trkpt>
      <trkpt lat="50.50468" lon="3.45372">
        <ele>17.681753</ele>
        <time>2021-05-07T18:28:19.439Z</time>
      </trkpt>
      <trkpt lat="50.50458" lon="3.45443">
        <ele>18.056302</ele>
        <time>2021-05-07T18:28:28.137Z</time>
      </trkpt>
      <trkpt lat="50.50448" lon="3.4547">
        <ele>18.216776</ele>
        <time>2021-05-07T18:28:31.951Z</time>
      </trkpt>
      <trkpt lat="50.50444" lon="3.45482">
        <ele>18.285615</ele>
        <time>2021-05-07T18:28:33.782Z</time>
      </trkpt>
      <trkpt lat="50.50447" lon="3.4549">
        <ele>18.333856</ele>
        <time>2021-05-07T18:28:34.779Z</time>
      </trkpt>
      <trkpt lat="50.50448" lon="3.45508">
        <ele>18.428375</ele>
        <time>2021-05-07T18:28:37.039Z</time>
      </trkpt>
      <trkpt lat="50.50443" lon="3.45552">
        <ele>18.65277</ele>
        <time>2021-05-07T18:28:42.381Z</time>
      </trkpt>
      <trkpt lat="50.50441" lon="3.45568">
        <ele>18.735989</ele>
        <time>2021-05-07T18:28:44.182Z</time>
      </trkpt>
      <trkpt lat="50.50441" lon="3.45573">
        <ele>18.762149</ele>
        <time>2021-05-07T18:28:44.715Z</time>
      </trkpt>
      <trkpt lat="50.5044" lon="3.45588">
        <ele>18.840448</ele>
        <time>2021-05-07T18:28:46.675Z</time>
      </trkpt>
      <trkpt lat="50.50437" lon="3.45631">
        <ele>19.06269</ele>
        <time>2021-05-07T18:28:50.846Z</time>
      </trkpt>
      <trkpt lat="50.50436" lon="3.45642">
        <ele>19.118895</ele>
        <time>2021-05-07T18:28:52.452Z</time>
      </trkpt>
      <trkpt lat="50.50433" lon="3.4572">
        <ele>19.25319</ele>
        <time>2021-05-07T18:29:00.699Z</time>
      </trkpt>
      <trkpt lat="50.50424" lon="3.45772">
        <ele>19.25319</ele>
        <time>2021-05-07T18:29:06.312Z</time>
      </trkpt>
      <trkpt lat="50.5041" lon="3.45851">
        <ele>19.25319</ele>
        <time>2021-05-07T18:29:14.382Z</time>
      </trkpt>
      <trkpt lat="50.50406" lon="3.45869">
        <ele>19.25319</ele>
        <time>2021-05-07T18:29:16.758Z</time>
      </trkpt>
    </trkseg>
  </trk>
</gpx>